Wetterdaten: Donnerstag, 24.01.2019
Datum Zeit Temp. Aussen Temp. o. S. +5cm Feuchte Auss Luftdruck Regen Sonnenschein Regendauer Solar Windben Empfang
24.01.2019 00:00 -2,7 C -3,3 C -3,9 C 85 % 1003,9 hPa 0,0 l/m 0 min 0 min 0 W/m 6,4 km/h (2 Bft) 100,00 %
24.01.2019 00:02 -2,7 C -3,3 C -3,9 C 85 % 1004,0 hPa 0,0 l/m 0 min 0 min 0 W/m 3,2 km/h (1 Bft) 100,00 %
24.01.2019 00:04 -2,7 C -3,3 C -3,9 C 85 % 1003,9 hPa 0,0 l/m 0 min 0 min 0 W/m 6,4 km/h (2 Bft) 100,00 %
24.01.2019 00:08 -2,7 C -3,3 C -3,9 C 85 % 1004,1 hPa 0,0 l/m 0 min 0 min 0 W/m 9,7 km/h (2 Bft) 100,00 %
24.01.2019 00:10 -2,7 C -3,3 C -3,9 C 85 % 1004,0 hPa 0,0 l/m 0 min 0 min 0 W/m 6,4 km/h (2 Bft) 100,00 %
24.01.2019 00:12 -2,7 C -3,3 C -3,9 C 85 % 1004,2 hPa 0,0 l/m 0 min 0 min 0 W/m 6,4 km/h (2 Bft) 95,74 %
24.01.2019 00:14 -2,7 C -3,3 C -3,9 C 85 % 1004,2 hPa 0,0 l/m 0 min 0 min 0 W/m 6,4 km/h (2 Bft) 100,00 %
24.01.2019 00:16 -2,7 C -3,3 C -3,9 C 85 % 1004,2 hPa 0,0 l/m 0 min 0 min 0 W/m 6,4 km/h (2 Bft) 100,00 %
24.01.2019 00:18 -2,7 C -3,3 C -3,9 C 85 % 1004,2 hPa 0,0 l/m 0 min 0 min 0 W/m 3,2 km/h (1 Bft) 97,87 %
24.01.2019 00:20 -2,7 C -3,3 C -3,9 C 85 % 1004,3 hPa 0,0 l/m 0 min 0 min 0 W/m 9,7 km/h (2 Bft) 97,87 %
24.01.2019 00:22 -2,7 C -3,3 C -3,9 C 85 % 1004,2 hPa 0,0 l/m 0 min 0 min 0 W/m 6,4 km/h (2 Bft) 93,62 %
24.01.2019 00:24 -2,7 C -3,3 C -3,9 C 85 % 1004,2 hPa 0,0 l/m 0 min 0 min 0 W/m 9,7 km/h (2 Bft) 97,87 %
24.01.2019 00:26 -2,7 C -3,3 C -3,9 C 85 % 1004,2 hPa 0,0 l/m 0 min 0 min 0 W/m 3,2 km/h (1 Bft) 97,87 %
24.01.2019 00:28 -2,8 C -3,3 C -3,9 C 85 % 1004,3 hPa 0,0 l/m 0 min 0 min 0 W/m 3,2 km/h (1 Bft) 97,83 %
24.01.2019 00:30 -2,8 C -3,3 C -3,9 C 85 % 1004,3 hPa 0,0 l/m 0 min 0 min 0 W/m 3,2 km/h (1 Bft) 97,87 %
24.01.2019 00:32 -2,8 C -3,3 C -3,9 C 85 % 1004,3 hPa 0,0 l/m 0 min 0 min 0 W/m 3,2 km/h (1 Bft) 97,87 %
24.01.2019 00:34 -2,8 C -3,3 C -3,9 C 85 % 1004,4 hPa 0,0 l/m 0 min 0 min 0 W/m 3,2 km/h (1 Bft) 97,87 %
24.01.2019 00:36 -2,8 C -3,3 C -3,9 C 85 % 1004,4 hPa 0,0 l/m 0 min 0 min 0 W/m 3,2 km/h (1 Bft) 97,87 %
24.01.2019 00:38 -2,8 C -3,3 C -3,9 C 85 % 1004,4 hPa 0,0 l/m 0 min 0 min 0 W/m 6,4 km/h (2 Bft) 97,87 %
24.01.2019 00:40 -2,8 C -3,3 C -3,9 C 85 % 1004,4 hPa 0,0 l/m 0 min 0 min 0 W/m 6,4 km/h (2 Bft) 95,65 %
24.01.2019 00:42 -2,8 C -3,3 C -3,9 C 85 % 1004,5 hPa 0,0 l/m 0 min 0 min 0 W/m 3,2 km/h (1 Bft) 97,87 %
24.01.2019 00:44 -2,8 C -3,3 C -3,9 C 85 % 1004,5 hPa 0,0 l/m 0 min 0 min 0 W/m 3,2 km/h (1 Bft) 95,74 %
24.01.2019 00:46 -2,8 C -3,3 C -3,9 C 85 % 1004,5 hPa 0,0 l/m 0 min 0 min 0 W/m 3,2 km/h (1 Bft) 97,87 %
24.01.2019 00:48 -2,8 C -3,3 C -3,9 C 85 % 1004,5 hPa 0,0 l/m 0 min 0 min 0 W/m 6,4 km/h (2 Bft) 97,87 %
24.01.2019 00:50 -2,8 C -3,3 C -3,9 C 85 % 1004,5 hPa 0,0 l/m 0 min 0 min 0 W/m 6,4 km/h (2 Bft) 97,83 %
24.01.2019 00:52 -2,8 C -3,3 C -3,9 C 85 % 1004,5 hPa 0,0 l/m 0 min 0 min 0 W/m 3,2 km/h (1 Bft) 97,87 %
24.01.2019 00:54 -2,8 C -3,3 C -3,9 C 85 % 1004,5 hPa 0,0 l/m 0 min 0 min 0 W/m 6,4 km/h (2 Bft) 97,87 %
24.01.2019 00:56 -2,8 C -3,3 C -3,9 C 85 % 1004,6 hPa 0,0 l/m 0 min 0 min 0 W/m 6,4 km/h (2 Bft) 95,74 %
24.01.2019 00:58 -2,8 C -3,3 C -3,9 C 85 % 1004,5 hPa 0,0 l/m 0 min 0 min 0 W/m 6,4 km/h (2 Bft) 100,00 %
24.01.2019 01:00 -2,8 C -3,3 C -3,9 C 85 % 1004,6 hPa 0,0 l/m 0 min 0 min 0 W/m 6,4 km/h (2 Bft) 100,00 %
24.01.2019 01:02 -2,8 C -3,3 C -3,9 C 85 % 1004,7 hPa 0,0 l/m 0 min 0 min 0 W/m 6,4 km/h (2 Bft) 95,65 %
24.01.2019 01:04 -2,8 C -3,3 C -3,9 C 85 % 1004,7 hPa 0,0 l/m 0 min 0 min 0 W/m 9,7 km/h (2 Bft) 97,87 %
24.01.2019 01:06 -2,8 C -3,3 C -3,9 C 85 % 1004,8 hPa 0,0 l/m 0 min 0 min 0 W/m 9,7 km/h (2 Bft) 95,74 %
24.01.2019 01:08 -2,8 C -3,3 C -3,9 C 85 % 1004,8 hPa 0,0 l/m 0 min 0 min 0 W/m 6,4 km/h (2 Bft) 97,87 %
24.01.2019 01:10 -2,8 C -3,3 C -3,9 C 85 % 1004,8 hPa 0,0 l/m 0 min 0 min 0 W/m 3,2 km/h (1 Bft) 95,74 %
24.01.2019 01:12 -2,8 C -3,3 C -3,9 C 85 % 1004,8 hPa 0,0 l/m 0 min 0 min 0 W/m 6,4 km/h (2 Bft) 97,87 %
24.01.2019 01:14 -2,8 C -3,3 C -3,9 C 85 % 1004,9 hPa 0,0 l/m 0 min 0 min 0 W/m 6,4 km/h (2 Bft) 95,65 %
24.01.2019 01:16 -2,8 C -3,3 C -3,9 C 85 % 1004,9 hPa 0,0 l/m 0 min 0 min 0 W/m 3,2 km/h (1 Bft) 97,87 %
24.01.2019 01:18 -2,8 C -3,3 C -3,9 C 85 % 1004,8 hPa 0,0 l/m 0 min 0 min 0 W/m 6,4 km/h (2 Bft) 97,87 %
24.01.2019 01:20 -2,8 C -3,3 C -3,9 C 85 % 1004,8 hPa 0,0 l/m 0 min 0 min 0 W/m 12,9 km/h (3 Bft) 97,87 %
24.01.2019 01:22 -2,8 C -3,3 C -3,9 C 85 % 1004,8 hPa 0,0 l/m 0 min 0 min 0 W/m 12,9 km/h (3 Bft) 97,87 %
24.01.2019 01:24 -2,8 C -3,3 C -3,9 C 85 % 1004,9 hPa 0,0 l/m 0 min 0 min 0 W/m 6,4 km/h (2 Bft) 95,74 %
24.01.2019 01:26 -2,8 C -3,3 C -3,9 C 85 % 1005,0 hPa 0,0 l/m 0 min 0 min 0 W/m 6,4 km/h (2 Bft) 97,83 %
24.01.2019 01:28 -2,8 C -3,3 C -3,9 C 85 % 1004,9 hPa 0,0 l/m 0 min 0 min 0 W/m 6,4 km/h (2 Bft) 95,74 %
24.01.2019 01:30 -2,8 C -3,3 C -3,9 C 85 % 1004,9 hPa 0,0 l/m 0 min 0 min 0 W/m 9,7 km/h (2 Bft) 97,87 %
24.01.2019 01:32 -2,8 C -3,3 C -3,9 C 85 % 1005,0 hPa 0,0 l/m 0 min 0 min 0 W/m 6,4 km/h (2 Bft) 97,87 %
24.01.2019 01:34 -2,8 C -3,3 C -3,9 C 85 % 1005,0 hPa 0,0 l/m 0 min 0 min 0 W/m 6,4 km/h (2 Bft) 97,87 %
24.01.2019 01:36 -2,8 C -3,3 C -3,9 C 85 % 1005,1 hPa 0,0 l/m 0 min 0 min 0 W/m 9,7 km/h (2 Bft) 95,65 %
24.01.2019 01:38 -2,8 C -3,3 C -3,9 C 85 % 1005,1 hPa 0,0 l/m 0 min 0 min 0 W/m 12,9 km/h (3 Bft) 97,87 %
24.01.2019 01:40 -2,8 C -3,3 C -3,9 C 85 % 1005,2 hPa 0,0 l/m 0 min 0 min 0 W/m 16,1 km/h (3 Bft) 97,87 %
24.01.2019 01:42 -2,8 C -3,3 C -3,9 C 85 % 1005,1 hPa 0,0 l/m 0 min 0 min 0 W/m 12,9 km/h (3 Bft) 97,87 %
24.01.2019 01:44 -2,8 C -3,3 C -3,9 C 85 % 1005,2 hPa 0,0 l/m 0 min 0 min 0 W/m 12,9 km/h (3 Bft) 95,74 %
24.01.2019 01:46 -2,8 C -3,3 C -3,9 C 85 % 1005,1 hPa 0,0 l/m 0 min 0 min 0 W/m 3,2 km/h (1 Bft) 97,87 %
24.01.2019 01:48 -2,8 C -3,3 C -3,9 C 85 % 1005,2 hPa 0,0 l/m 0 min 0 min 0 W/m 12,9 km/h (3 Bft) 97,83 %
24.01.2019 01:50 -2,8 C -3,3 C -3,9 C 85 % 1005,2 hPa 0,0 l/m 0 min 0 min 0 W/m 9,7 km/h (2 Bft) 100,00 %
24.01.2019 01:52 -2,8 C -3,3 C -3,9 C 85 % 1005,2 hPa 0,0 l/m 0 min 0 min 0 W/m 6,4 km/h (2 Bft) 100,00 %
24.01.2019 01:54 -2,8 C -3,3 C -3,9 C 85 % 1005,2 hPa 0,0 l/m 0 min 0 min 0 W/m 9,7 km/h (2 Bft) 97,87 %
24.01.2019 01:56 -2,9 C -3,3 C -3,9 C 85 % 1005,2 hPa 0,0 l/m 0 min 0 min 0 W/m 9,7 km/h (2 Bft) 100,00 %
24.01.2019 01:58 -2,8 C -3,3 C -3,9 C 86 % 1005,2 hPa 0,0 l/m 0 min 0 min 0 W/m 9,7 km/h (2 Bft) 97,87 %
24.01.2019 02:00 -2,9 C -3,3 C -3,9 C 86 % 1005,3 hPa 0,0 l/m 0 min 0 min 0 W/m 6,4 km/h (2 Bft) 95,65 %
24.01.2019 02:02 -2,9 C -3,3 C -3,9 C 86 % 1005,2 hPa 0,0 l/m 0 min 0 min 0 W/m 9,7 km/h (2 Bft) 100,00 %
24.01.2019 02:04 -2,9 C -3,3 C -3,9 C 86 % 1005,2 hPa 0,0 l/m 0 min 0 min 0 W/m 9,7 km/h (2 Bft) 100,00 %
24.01.2019 02:06 -2,9 C -3,3 C -3,9 C 86 % 1005,2 hPa 0,0 l/m 0 min 0 min 0 W/m 6,4 km/h (2 Bft) 100,00 %
24.01.2019 02:08 -2,9 C -3,3 C -3,9 C 86 % 1005,2 hPa 0,0 l/m 0 min 0 min 0 W/m 6,4 km/h (2 Bft) 100,00 %
24.01.2019 02:10 -2,9 C -3,3 C -3,9 C 86 % 1005,3 hPa 0,0 l/m 0 min 0 min 0 W/m 12,9 km/h (3 Bft) 100,00 %
24.01.2019 02:12 -2,9 C -3,3 C -3,9 C 86 % 1005,3 hPa 0,0 l/m 0 min 0 min 0 W/m 9,7 km/h (2 Bft) 100,00 %
24.01.2019 02:14 -2,9 C -3,3 C -3,9 C 86 % 1005,3 hPa 0,0 l/m 0 min 0 min 0 W/m 6,4 km/h (2 Bft) 100,00 %
24.01.2019 02:16 -2,9 C -3,3 C -3,9 C 86 % 1005,3 hPa 0,0 l/m 0 min 0 min 0 W/m 6,4 km/h (2 Bft) 100,00 %
24.01.2019 02:18 -2,9 C -3,3 C -3,9 C 86 % 1005,4 hPa 0,0 l/m 0 min 0 min 0 W/m 6,4 km/h (2 Bft) 100,00 %
24.01.2019 02:20 -2,9 C -3,3 C -3,9 C 86 % 1005,4 hPa 0,0 l/m 0 min 0 min 0 W/m 9,7 km/h (2 Bft) 97,87 %
24.01.2019 02:22 -2,9 C -3,3 C -3,9 C 86 % 1005,4 hPa 0,0 l/m 0 min 0 min 0 W/m 9,7 km/h (2 Bft) 97,87 %
24.01.2019 02:24 -2,9 C -3,3 C -3,9 C 86 % 1005,5 hPa 0,0 l/m 0 min 0 min 0 W/m 9,7 km/h (2 Bft) 100,00 %
24.01.2019 02:26 -2,9 C -3,3 C -3,9 C 86 % 1005,5 hPa 0,0 l/m 0 min 0 min 0 W/m 12,9 km/h (3 Bft) 100,00 %
24.01.2019 02:28 -2,9 C -3,3 C -3,9 C 86 % 1005,5 hPa 0,0 l/m 0 min 0 min 0 W/m 9,7 km/h (2 Bft) 95,74 %
24.01.2019 02:30 -2,9 C -3,3 C -3,9 C 86 % 1005,6 hPa 0,0 l/m 0 min 0 min 0 W/m 9,7 km/h (2 Bft) 95,74 %
24.01.2019 02:32 -3,0 C -3,3 C -3,9 C 86 % 1005,6 hPa 0,0 l/m 0 min 0 min 0 W/m 9,7 km/h (2 Bft) 97,87 %
24.01.2019 02:34 -3,0 C -3,3 C -3,9 C 86 % 1005,6 hPa 0,0 l/m 0 min 0 min 0 W/m 9,7 km/h (2 Bft) 95,74 %
24.01.2019 02:36 -3,0 C -3,3 C -3,9 C 86 % 1005,6 hPa 0,0 l/m 0 min 0 min 0 W/m 9,7 km/h (2 Bft) 95,65 %
24.01.2019 02:38 -3,0 C -3,3 C -3,9 C 86 % 1005,6 hPa 0,0 l/m 0 min 0 min 0 W/m 9,7 km/h (2 Bft) 95,74 %
24.01.2019 02:40 -3,0 C -3,3 C -3,9 C 86 % 1005,6 hPa 0,0 l/m 0 min 0 min 0 W/m 6,4 km/h (2 Bft) 95,74 %
24.01.2019 02:42 -3,0 C -3,3 C -3,9 C 86 % 1005,6 hPa 0,0 l/m 0 min 0 min 0 W/m 9,7 km/h (2 Bft) 95,74 %
24.01.2019 02:44 -3,0 C -3,3 C -3,9 C 86 % 1005,6 hPa 0,0 l/m 0 min 0 min 0 W/m 9,7 km/h (2 Bft) 93,62 %
24.01.2019 02:46 -3,0 C -3,3 C -3,9 C 86 % 1005,6 hPa 0,0 l/m 0 min 0 min 0 W/m 6,4 km/h (2 Bft) 93,48 %
24.01.2019 02:48 -3,0 C -3,3 C -3,9 C 86 % 1005,6 hPa 0,0 l/m 0 min 0 min 0 W/m 6,4 km/h (2 Bft) 95,74 %
24.01.2019 02:50 -3,0 C -3,3 C -3,9 C 86 % 1005,6 hPa 0,0 l/m 0 min 0 min 0 W/m 12,9 km/h (3 Bft) 97,87 %
24.01.2019 02:52 -3,0 C -3,3 C -3,9 C 86 % 1005,6 hPa 0,0 l/m 0 min 0 min 0 W/m 9,7 km/h (2 Bft) 95,74 %
24.01.2019 02:54 -3,0 C -3,3 C -3,9 C 86 % 1005,6 hPa 0,0 l/m 0 min 0 min 0 W/m 9,7 km/h (2 Bft) 95,74 %
24.01.2019 02:56 -3,0 C -3,3 C -3,9 C 86 % 1005,7 hPa 0,0 l/m 0 min 0 min 0 W/m 6,4 km/h (2 Bft) 93,62 %
24.01.2019 02:58 -3,0 C -3,3 C -3,9 C 86 % 1005,7 hPa 0,0 l/m 0 min 0 min 0 W/m 9,7 km/h (2 Bft) 95,65 %
24.01.2019 03:00 -3,1 C -3,3 C -3,9 C 86 % 1005,7 hPa 0,0 l/m 0 min 0 min 0 W/m 12,9 km/h (3 Bft) 93,62 %
24.01.2019 03:02 -3,0 C -3,3 C -3,9 C 86 % 1005,8 hPa 0,0 l/m 0 min 0 min 0 W/m 6,4 km/h (2 Bft) 93,62 %
24.01.2019 03:04 -3,1 C -3,3 C -3,9 C 86 % 1005,8 hPa 0,0 l/m 0 min 0 min 0 W/m 12,9 km/h (3 Bft) 93,62 %
24.01.2019 03:06 -3,1 C -3,3 C -3,9 C 86 % 1005,8 hPa 0,0 l/m 0 min 0 min 0 W/m 6,4 km/h (2 Bft) 95,74 %
24.01.2019 03:08 -3,1 C -3,3 C -3,9 C 86 % 1005,8 hPa 0,0 l/m 0 min 0 min 0 W/m 6,4 km/h (2 Bft) 93,62 %
24.01.2019 03:10 -3,1 C -3,3 C -3,9 C 86 % 1005,8 hPa 0,0 l/m 0 min 0 min 0 W/m 6,4 km/h (2 Bft) 93,48 %
24.01.2019 03:12 -3,1 C -3,3 C -3,9 C 86 % 1005,8 hPa 0,0 l/m 0 min 0 min 0 W/m 6,4 km/h (2 Bft) 95,74 %
24.01.2019 03:14 -3,1 C -3,3 C -3,9 C 86 % 1005,9 hPa 0,0 l/m 0 min 0 min 0 W/m 9,7 km/h (2 Bft) 93,62 %
24.01.2019 03:16 -3,1 C -3,3 C -3,9 C 86 % 1005,8 hPa 0,0 l/m 0 min 0 min 0 W/m 9,7 km/h (2 Bft) 97,87 %
24.01.2019 03:18 -3,1 C -3,3 C -3,9 C 86 % 1005,8 hPa 0,0 l/m 0 min 0 min 0 W/m 6,4 km/h (2 Bft) 97,87 %
24.01.2019 03:20 -3,1 C -3,3 C -3,9 C 86 % 1005,9 hPa 0,0 l/m 0 min 0 min 0 W/m 3,2 km/h (1 Bft) 97,87 %
24.01.2019 03:22 -3,1 C -3,3 C -3,9 C 86 % 1005,8 hPa 0,0 l/m 0 min 0 min 0 W/m 3,2 km/h (1 Bft) 97,83 %
24.01.2019 03:24 -3,1 C -3,3 C -3,9 C 86 % 1005,9 hPa 0,0 l/m 0 min 0 min 0 W/m 6,4 km/h (2 Bft) 97,87 %
24.01.2019 03:26 -3,1 C -3,3 C -3,9 C 86 % 1005,9 hPa 0,0 l/m 0 min 0 min 0 W/m 6,4 km/h (2 Bft) 95,74 %
24.01.2019 03:28 -3,1 C -3,3 C -3,9 C 86 % 1005,9 hPa 0,0 l/m 0 min 0 min 0 W/m 6,4 km/h (2 Bft) 97,87 %
24.01.2019 03:30 -3,1 C -3,3 C -3,9 C 86 % 1005,9 hPa 0,0 l/m 0 min 0 min 0 W/m 6,4 km/h (2 Bft) 95,74 %
24.01.2019 03:32 -3,1 C -3,3 C -3,9 C 86 % 1005,9 hPa 0,0 l/m 0 min 0 min 0 W/m 6,4 km/h (2 Bft) 97,87 %
24.01.2019 03:34 -3,1 C -3,9 C -3,9 C 86 % 1005,9 hPa 0,0 l/m 0 min 0 min 0 W/m 6,4 km/h (2 Bft) 97,83 %
24.01.2019 03:36 -3,1 C -3,9 C -3,9 C 86 % 1005,9 hPa 0,0 l/m 0 min 0 min 0 W/m 9,7 km/h (2 Bft) 97,87 %
24.01.2019 03:38 -3,1 C -3,3 C -3,9 C 86 % 1006,0 hPa 0,0 l/m 0 min 0 min 0 W/m 9,7 km/h (2 Bft) 97,87 %
24.01.2019 03:40 -3,1 C -3,9 C -3,9 C 86 % 1005,9 hPa 0,0 l/m 0 min 0 min 0 W/m 6,4 km/h (2 Bft) 97,87 %
24.01.2019 03:42 -3,1 C -3,9 C -3,9 C 86 % 1005,9 hPa 0,0 l/m 0 min 0 min 0 W/m 6,4 km/h (2 Bft) 97,87 %
24.01.2019 03:44 -3,1 C -3,9 C -3,9 C 86 % 1006,0 hPa 0,0 l/m 0 min 0 min 0 W/m 9,7 km/h (2 Bft) 97,87 %
24.01.2019 03:46 -3,1 C -3,9 C -3,9 C 86 % 1006,0 hPa 0,0 l/m 0 min 0 min 0 W/m 9,7 km/h (2 Bft) 100,00 %
24.01.2019 03:48 -3,1 C -3,3 C -3,9 C 86 % 1006,0 hPa 0,0 l/m 0 min 0 min 0 W/m 12,9 km/h (3 Bft) 97,87 %
24.01.2019 03:50 -3,1 C -3,3 C -3,9 C 86 % 1006,0 hPa 0,0 l/m 0 min 0 min 0 W/m 9,7 km/h (2 Bft) 97,87 %
24.01.2019 03:52 -3,1 C -3,9 C -3,9 C 86 % 1006,0 hPa 0,0 l/m 0 min 0 min 0 W/m 6,4 km/h (2 Bft) 97,87 %
24.01.2019 03:54 -3,1 C -3,9 C -3,9 C 86 % 1006,0 hPa 0,0 l/m 0 min 0 min 0 W/m 9,7 km/h (2 Bft) 95,74 %
24.01.2019 03:56 -3,1 C -3,9 C -3,9 C 86 % 1006,0 hPa 0,0 l/m 0 min 0 min 0 W/m 6,4 km/h (2 Bft) 97,83 %
24.01.2019 03:58 -3,2 C -3,9 C -3,9 C 86 % 1006,0 hPa 0,0 l/m 0 min 0 min 0 W/m 3,2 km/h (1 Bft) 97,87 %
24.01.2019 04:00 -3,1 C -3,9 C -3,9 C 86 % 1006,0 hPa 0,0 l/m 0 min 0 min 0 W/m 9,7 km/h (2 Bft) 97,87 %
24.01.2019 04:05 -3,2 C -3,9 C -3,9 C 86 % 1006,0 hPa 0,0 l/m 0 min 0 min 0 W/m 9,7 km/h (2 Bft) 98,53 %
24.01.2019 04:06 -3,2 C -3,9 C -3,9 C 86 % 1006,0 hPa 0,0 l/m 0 min 0 min 0 W/m 6,4 km/h (2 Bft) 91,67 %
24.01.2019 04:08 -3,2 C -3,9 C -3,9 C 86 % 1005,9 hPa 0,0 l/m 0 min 0 min 0 W/m 6,4 km/h (2 Bft) 97,87 %
24.01.2019 04:10 -3,2 C -3,9 C -3,9 C 86 % 1005,9 hPa 0,0 l/m 0 min 0 min 0 W/m 9,7 km/h (2 Bft) 97,83 %
24.01.2019 04:12 -3,2 C -3,9 C -3,9 C 86 % 1005,8 hPa 0,0 l/m 0 min 0 min 0 W/m 9,7 km/h (2 Bft) 97,87 %
24.01.2019 04:14 -3,2 C -3,9 C -4,4 C 86 % 1005,9 hPa 0,0 l/m 0 min 0 min 0 W/m 6,4 km/h (2 Bft) 97,87 %
24.01.2019 04:16 -3,2 C -3,9 C -4,4 C 86 % 1005,9 hPa 0,0 l/m 0 min 0 min 0 W/m 6,4 km/h (2 Bft) 97,87 %
24.01.2019 04:18 -3,2 C -3,9 C -4,4 C 86 % 1006,0 hPa 0,0 l/m 0 min 0 min 0 W/m 9,7 km/h (2 Bft) 97,87 %
24.01.2019 04:20 -3,2 C -3,9 C -4,4 C 86 % 1006,0 hPa 0,0 l/m 0 min 0 min 0 W/m 6,4 km/h (2 Bft) 93,48 %
24.01.2019 04:22 -3,2 C -3,9 C -4,4 C 86 % 1006,1 hPa 0,0 l/m 0 min 0 min 0 W/m 6,4 km/h (2 Bft) 95,74 %
24.01.2019 04:24 -3,2 C -3,9 C -4,4 C 86 % 1006,0 hPa 0,0 l/m 0 min 0 min 0 W/m 9,7 km/h (2 Bft) 97,87 %
24.01.2019 04:26 -3,2 C -3,9 C -4,4 C 86 % 1006,0 hPa 0,0 l/m 0 min 0 min 0 W/m 9,7 km/h (2 Bft) 97,87 %
24.01.2019 04:28 -3,2 C -3,9 C -4,4 C 86 % 1006,1 hPa 0,0 l/m 0 min 0 min 0 W/m 9,7 km/h (2 Bft) 97,87 %
24.01.2019 04:30 -3,2 C -3,9 C -4,4 C 86 % 1006,0 hPa 0,0 l/m 0 min 0 min 0 W/m 6,4 km/h (2 Bft) 97,87 %
24.01.2019 04:32 -3,2 C -3,9 C -4,4 C 86 % 1006,1 hPa 0,0 l/m 0 min 0 min 0 W/m 6,4 km/h (2 Bft) 97,83 %
24.01.2019 04:34 -3,2 C -3,9 C -4,4 C 86 % 1006,1 hPa 0,0 l/m 0 min 0 min 0 W/m 6,4 km/h (2 Bft) 95,74 %
24.01.2019 04:36 -3,2 C -3,9 C -4,4 C 86 % 1006,1 hPa 0,0 l/m 0 min 0 min 0 W/m 9,7 km/h (2 Bft) 97,87 %
24.01.2019 04:38 -3,3 C -3,9 C -4,4 C 86 % 1006,1 hPa 0,0 l/m 0 min 0 min 0 W/m 16,1 km/h (3 Bft) 95,74 %
24.01.2019 04:40 -3,3 C -3,9 C -4,4 C 86 % 1006,2 hPa 0,0 l/m 0 min 0 min 0 W/m 12,9 km/h (3 Bft) 97,87 %
24.01.2019 04:42 -3,3 C -3,9 C -4,4 C 86 % 1006,1 hPa 0,0 l/m 0 min 0 min 0 W/m 9,7 km/h (2 Bft) 100,00 %
24.01.2019 04:44 -3,3 C -3,9 C -4,4 C 86 % 1006,1 hPa 0,0 l/m 0 min 0 min 0 W/m 9,7 km/h (2 Bft) 95,65 %
24.01.2019 04:46 -3,3 C -3,9 C -4,4 C 86 % 1006,1 hPa 0,0 l/m 0 min 0 min 0 W/m 9,7 km/h (2 Bft) 97,87 %
24.01.2019 04:48 -3,3 C -3,9 C -4,4 C 86 % 1006,1 hPa 0,0 l/m 0 min 0 min 0 W/m 9,7 km/h (2 Bft) 95,74 %
24.01.2019 04:50 -3,3 C -3,9 C -4,4 C 86 % 1006,1 hPa 0,0 l/m 0 min 0 min 0 W/m 6,4 km/h (2 Bft) 95,74 %
24.01.2019 04:52 -3,3 C -3,9 C -4,4 C 86 % 1006,2 hPa 0,0 l/m 0 min 0 min 0 W/m 6,4 km/h (2 Bft) 95,74 %
24.01.2019 04:54 -3,3 C -3,9 C -4,4 C 86 % 1006,2 hPa 0,0 l/m 0 min 0 min 0 W/m 3,2 km/h (1 Bft) 97,83 %
24.01.2019 04:56 -3,3 C -3,9 C -4,4 C 86 % 1006,2 hPa 0,0 l/m 0 min 0 min 0 W/m 3,2 km/h (1 Bft) 93,62 %
24.01.2019 04:58 -3,3 C -3,9 C -4,4 C 86 % 1006,2 hPa 0,0 l/m 0 min 0 min 0 W/m 3,2 km/h (1 Bft) 97,87 %
24.01.2019 05:00 -3,3 C -3,9 C -4,4 C 86 % 1006,2 hPa 0,0 l/m 0 min 0 min 0 W/m 6,4 km/h (2 Bft) 97,87 %
24.01.2019 05:02 -3,3 C -3,9 C -4,4 C 86 % 1006,2 hPa 0,0 l/m 0 min 0 min 0 W/m 9,7 km/h (2 Bft) 97,87 %
24.01.2019 05:04 -3,3 C -3,9 C -4,4 C 86 % 1006,2 hPa 0,0 l/m 0 min 0 min 0 W/m 9,7 km/h (2 Bft) 97,87 %
24.01.2019 05:05 -3,3 C -3,9 C -4,4 C 86 % 1006,2 hPa 0,0 l/m 0 min 0 min 0 W/m 12,9 km/h (3 Bft) 100,00 %
24.01.2019 05:12 -3,3 C -3,9 C -4,4 C 86 % 1006,2 hPa 0,0 l/m 0 min 0 min 0 W/m 9,7 km/h (2 Bft) 96,88 %
24.01.2019 05:14 -3,3 C -3,9 C -4,4 C 86 % 1006,2 hPa 0,0 l/m 0 min 0 min 0 W/m 9,7 km/h (2 Bft) 100,00 %
24.01.2019 05:16 -3,3 C -3,9 C -4,4 C 86 % 1006,3 hPa 0,0 l/m 0 min 0 min 0 W/m 6,4 km/h (2 Bft) 100,00 %
24.01.2019 05:18 -3,3 C -3,9 C -4,4 C 86 % 1006,4 hPa 0,0 l/m 0 min 0 min 0 W/m 6,4 km/h (2 Bft) 97,83 %
24.01.2019 05:20 -3,3 C -3,9 C -4,4 C 86 % 1006,4 hPa 0,0 l/m 0 min 0 min 0 W/m 9,7 km/h (2 Bft) 97,87 %
24.01.2019 05:22 -3,3 C -3,9 C -4,4 C 86 % 1006,4 hPa 0,0 l/m 0 min 0 min 0 W/m 9,7 km/h (2 Bft) 95,74 %
24.01.2019 05:24 -3,4 C -3,9 C -4,4 C 87 % 1006,4 hPa 0,0 l/m 0 min 0 min 0 W/m 6,4 km/h (2 Bft) 97,87 %
24.01.2019 05:26 -3,4 C -3,9 C -4,4 C 87 % 1006,4 hPa 0,0 l/m 0 min 0 min 0 W/m 6,4 km/h (2 Bft) 97,87 %
24.01.2019 05:28 -3,4 C -3,9 C -4,4 C 87 % 1006,4 hPa 0,0 l/m 0 min 0 min 0 W/m 9,7 km/h (2 Bft) 97,87 %
24.01.2019 05:30 -3,4 C -3,9 C -4,4 C 87 % 1006,3 hPa 0,0 l/m 0 min 0 min 0 W/m 6,4 km/h (2 Bft) 97,83 %
24.01.2019 05:32 -3,4 C -3,9 C -4,4 C 87 % 1006,4 hPa 0,0 l/m 0 min 0 min 0 W/m 9,7 km/h (2 Bft) 97,87 %
24.01.2019 05:34 -3,4 C -3,9 C -4,4 C 87 % 1006,5 hPa 0,0 l/m 0 min 0 min 0 W/m 12,9 km/h (3 Bft) 100,00 %
24.01.2019 05:36 -3,4 C -3,9 C -4,4 C 87 % 1006,5 hPa 0,0 l/m 0 min 0 min 0 W/m 9,7 km/h (2 Bft) 100,00 %
24.01.2019 05:38 -3,4 C -3,9 C -4,4 C 87 % 1006,5 hPa 0,0 l/m 0 min 0 min 0 W/m 6,4 km/h (2 Bft) 100,00 %
24.01.2019 05:40 -3,4 C -3,9 C -4,4 C 87 % 1006,5 hPa 0,0 l/m 0 min 0 min 0 W/m 6,4 km/h (2 Bft) 100,00 %
24.01.2019 05:42 -3,4 C -3,9 C -4,4 C 87 % 1006,5 hPa 0,0 l/m 0 min 0 min 0 W/m 12,9 km/h (3 Bft) 97,83 %
24.01.2019 05:44 -3,4 C -3,9 C -4,4 C 87 % 1006,5 hPa 0,0 l/m 0 min 0 min 0 W/m 6,4 km/h (2 Bft) 100,00 %
24.01.2019 05:46 -3,4 C -3,9 C -4,4 C 87 % 1006,4 hPa 0,0 l/m 0 min 0 min 0 W/m 6,4 km/h (2 Bft) 100,00 %
24.01.2019 05:48 -3,4 C -3,9 C -4,4 C 87 % 1006,4 hPa 0,0 l/m 0 min 0 min 0 W/m 9,7 km/h (2 Bft) 100,00 %
24.01.2019 05:50 -3,4 C -3,9 C -4,4 C 87 % 1006,6 hPa 0,0 l/m 0 min 0 min 0 W/m 6,4 km/h (2 Bft) 100,00 %
24.01.2019 05:52 -3,4 C -3,9 C -4,4 C 87 % 1006,7 hPa 0,0 l/m 0 min 0 min 0 W/m 6,4 km/h (2 Bft) 100,00 %
24.01.2019 05:54 -3,4 C -3,9 C -4,4 C 86 % 1006,6 hPa 0,0 l/m 0 min 0 min 0 W/m 6,4 km/h (2 Bft) 100,00 %
24.01.2019 05:56 -3,4 C -3,9 C -4,4 C 86 % 1006,7 hPa 0,0 l/m 0 min 0 min 0 W/m 9,7 km/h (2 Bft) 100,00 %
24.01.2019 05:58 -3,4 C -3,9 C -4,4 C 87 % 1006,7 hPa 0,0 l/m 0 min 0 min 0 W/m 16,1 km/h (3 Bft) 100,00 %
24.01.2019 06:00 -3,4 C -3,9 C -4,4 C 87 % 1006,7 hPa 0,0 l/m 0 min 0 min 0 W/m 6,4 km/h (2 Bft) 100,00 %
24.01.2019 06:03 -3,4 C -3,9 C -4,4 C 87 % 1006,7 hPa 0,0 l/m 0 min 0 min 0 W/m 9,7 km/h (2 Bft) 100,00 %
24.01.2019 06:04 -3,4 C -3,9 C -4,4 C 87 % 1006,7 hPa 0,0 l/m 0 min 0 min 0 W/m 9,7 km/h (2 Bft) 100,00 %
24.01.2019 06:06 -3,4 C -3,9 C -4,4 C 87 % 1006,7 hPa 0,0 l/m 0 min 0 min 0 W/m 6,4 km/h (2 Bft) 98,00 %
24.01.2019 06:08 -3,5 C -3,9 C -4,4 C 87 % 1006,7 hPa 0,0 l/m 0 min 0 min 0 W/m 6,4 km/h (2 Bft) 97,96 %
24.01.2019 06:10 -3,5 C -3,9 C -4,4 C 87 % 1006,8 hPa 0,0 l/m 0 min 0 min 0 W/m 6,4 km/h (2 Bft) 100,00 %
24.01.2019 06:12 -3,5 C -3,9 C -4,4 C 87 % 1006,8 hPa 0,0 l/m 0 min 0 min 0 W/m 9,7 km/h (2 Bft) 100,00 %
24.01.2019 06:14 -3,5 C -3,9 C -4,4 C 87 % 1006,9 hPa 0,0 l/m 0 min 0 min 0 W/m 12,9 km/h (3 Bft) 95,74 %
24.01.2019 06:16 -3,5 C -3,9 C -4,4 C 87 % 1006,9 hPa 0,0 l/m 0 min 0 min 0 W/m 9,7 km/h (2 Bft) 97,83 %
24.01.2019 06:18 -3,5 C -3,9 C -4,4 C 87 % 1006,9 hPa 0,0 l/m 0 min 0 min 0 W/m 6,4 km/h (2 Bft) 100,00 %
24.01.2019 06:20 -3,5 C -3,9 C -4,4 C 87 % 1006,9 hPa 0,0 l/m 0 min 0 min 0 W/m 6,4 km/h (2 Bft) 100,00 %
24.01.2019 06:22 -3,5 C -3,9 C -4,4 C 87 % 1006,8 hPa 0,0 l/m 0 min 0 min 0 W/m 9,7 km/h (2 Bft) 100,00 %
24.01.2019 06:24 -3,5 C -3,9 C -4,4 C 87 % 1006,9 hPa 0,0 l/m 0 min 0 min 0 W/m 6,4 km/h (2 Bft) 100,00 %
24.01.2019 06:26 -3,5 C -3,9 C -4,4 C 87 % 1006,9 hPa 0,0 l/m 0 min 0 min 0 W/m 6,4 km/h (2 Bft) 100,00 %
24.01.2019 06:28 -3,5 C -3,9 C -4,4 C 87 % 1006,9 hPa 0,0 l/m 0 min 0 min 0 W/m 6,4 km/h (2 Bft) 100,00 %
24.01.2019 06:30 -3,5 C -3,9 C -4,4 C 87 % 1006,9 hPa 0,0 l/m 0 min 0 min 0 W/m 6,4 km/h (2 Bft) 100,00 %
24.01.2019 06:32 -3,5 C -3,9 C -4,4 C 87 % 1007,0 hPa 0,0 l/m 0 min 0 min 0 W/m 6,4 km/h (2 Bft) 100,00 %
24.01.2019 06:34 -3,5 C -3,9 C -4,4 C 87 % 1006,9 hPa 0,0 l/m 0 min 0 min 0 W/m 6,4 km/h (2 Bft) 100,00 %
24.01.2019 06:36 -3,5 C -3,9 C -4,4 C 87 % 1007,0 hPa 0,0 l/m 0 min 0 min 0 W/m 6,4 km/h (2 Bft) 100,00 %
24.01.2019 06:38 -3,6 C -3,9 C -4,4 C 87 % 1006,9 hPa 0,0 l/m 0 min 0 min 0 W/m 3,2 km/h (1 Bft) 97,83 %
24.01.2019 06:40 -3,6 C -3,9 C -4,4 C 87 % 1006,9 hPa 0,0 l/m 0 min 0 min 0 W/m 6,4 km/h (2 Bft) 97,87 %
24.01.2019 06:42 -3,6 C -3,9 C -4,4 C 87 % 1007,0 hPa 0,0 l/m 0 min 0 min 0 W/m 9,7 km/h (2 Bft) 100,00 %
24.01.2019 06:44 -3,6 C -3,9 C -4,4 C 87 % 1007,0 hPa 0,0 l/m 0 min 0 min 0 W/m 9,7 km/h (2 Bft) 97,87 %
24.01.2019 06:46 -3,6 C -3,9 C -4,4 C 87 % 1006,9 hPa 0,0 l/m 0 min 0 min 0 W/m 6,4 km/h (2 Bft) 95,74 %
24.01.2019 06:48 -3,6 C -3,9 C -4,4 C 87 % 1006,8 hPa 0,0 l/m 0 min 0 min 0 W/m 6,4 km/h (2 Bft) 95,74 %
24.01.2019 06:50 -3,6 C -3,9 C -4,4 C 87 % 1006,8 hPa 0,0 l/m 0 min 0 min 0 W/m 3,2 km/h (1 Bft) 93,48 %
24.01.2019 06:54 -3,6 C -3,9 C -4,4 C 87 % 1006,8 hPa 0,0 l/m 0 min 0 min 0 W/m 0,0 km/h (0 Bft) 96,97 %
24.01.2019 06:56 -3,6 C -3,9 C -4,4 C 87 % 1006,8 hPa 0,0 l/m 0 min 0 min 0 W/m 3,2 km/h (1 Bft) 89,36 %
24.01.2019 06:58 -3,6 C -3,9 C -4,4 C 87 % 1006,8 hPa 0,0 l/m 0 min 0 min 0 W/m 3,2 km/h (1 Bft) 91,49 %
24.01.2019 07:00 -3,6 C -3,9 C -4,4 C 87 % 1006,8 hPa 0,0 l/m 0 min 0 min 0 W/m 3,2 km/h (1 Bft) 95,74 %
24.01.2019 07:02 -3,6 C -3,9 C -4,4 C 87 % 1006,8 hPa 0,0 l/m 0 min 0 min 0 W/m 0,0 km/h (0 Bft) 92,86 %
24.01.2019 07:04 -3,6 C -3,9 C -4,4 C 87 % 1006,9 hPa 0,0 l/m 0 min 0 min 0 W/m 3,2 km/h (1 Bft) 93,62 %
24.01.2019 07:08 -3,6 C -3,9 C -4,4 C 87 % 1006,9 hPa 0,0 l/m 0 min 0 min 0 W/m 3,2 km/h (1 Bft) 93,75 %
24.01.2019 07:10 -3,6 C -3,9 C -4,4 C 87 % 1006,8 hPa 0,0 l/m 0 min 0 min 0 W/m 3,2 km/h (1 Bft) 97,96 %
24.01.2019 07:12 -3,6 C -3,9 C -4,4 C 87 % 1006,8 hPa 0,0 l/m 0 min 0 min 0 W/m 6,4 km/h (2 Bft) 93,62 %
24.01.2019 07:14 -3,6 C -3,9 C -4,4 C 87 % 1006,8 hPa 0,0 l/m 0 min 0 min 0 W/m 6,4 km/h (2 Bft) 91,49 %
24.01.2019 07:16 -3,6 C -3,9 C -4,4 C 87 % 1006,8 hPa 0,0 l/m 0 min 0 min 0 W/m 6,4 km/h (2 Bft) 93,62 %
24.01.2019 07:18 -3,6 C -3,9 C -4,4 C 87 % 1006,8 hPa 0,0 l/m 0 min 0 min 0 W/m 6,4 km/h (2 Bft) 93,62 %
24.01.2019 07:20 -3,6 C -3,9 C -4,4 C 87 % 1006,9 hPa 0,0 l/m 0 min 0 min 0 W/m 3,2 km/h (1 Bft) 93,62 %
24.01.2019 07:22 -3,7 C -3,9 C -4,4 C 87 % 1007,0 hPa 0,0 l/m 0 min 0 min 0 W/m 6,4 km/h (2 Bft) 91,49 %
24.01.2019 07:24 -3,7 C -3,9 C -4,4 C 87 % 1006,9 hPa 0,0 l/m 0 min 0 min 0 W/m 6,4 km/h (2 Bft) 95,12 %
24.01.2019 07:26 -3,7 C -3,9 C -4,4 C 87 % 1006,9 hPa 0,0 l/m 0 min 0 min 0 W/m 6,4 km/h (2 Bft) 89,80 %
24.01.2019 07:28 -3,7 C -3,9 C -4,4 C 87 % 1007,0 hPa 0,0 l/m 0 min 0 min 0 W/m 6,4 km/h (2 Bft) 91,30 %
24.01.2019 07:30 -3,7 C -3,9 C -4,4 C 87 % 1007,0 hPa 0,0 l/m 0 min 0 min 0 W/m 6,4 km/h (2 Bft) 93,62 %
24.01.2019 07:32 -3,7 C -3,9 C -4,4 C 87 % 1007,0 hPa 0,0 l/m 0 min 0 min 0 W/m 6,4 km/h (2 Bft) 89,36 %
24.01.2019 07:34 -3,7 C -3,9 C -4,4 C 87 % 1007,0 hPa 0,0 l/m 0 min 0 min 0 W/m 9,7 km/h (2 Bft) 93,62 %
24.01.2019 07:36 -3,7 C -3,9 C -4,4 C 87 % 1007,1 hPa 0,0 l/m 0 min 0 min 0 W/m 9,7 km/h (2 Bft) 96,55 %
24.01.2019 07:38 -3,7 C -3,9 C -4,4 C 87 % 1007,2 hPa 0,0 l/m 0 min 0 min 0 W/m 6,4 km/h (2 Bft) 91,43 %
24.01.2019 07:40 -3,7 C -3,9 C -4,4 C 87 % 1007,2 hPa 0,0 l/m 0 min 0 min 0 W/m 3,2 km/h (1 Bft) 98,15 %
24.01.2019 07:42 -3,7 C -3,9 C -4,4 C 87 % 1007,2 hPa 0,0 l/m 0 min 0 min 0 W/m 6,4 km/h (2 Bft) 95,74 %
24.01.2019 07:44 -3,7 C -4,4 C -4,4 C 87 % 1007,3 hPa 0,0 l/m 0 min 0 min 0 W/m 6,4 km/h (2 Bft) 95,74 %
24.01.2019 07:46 -3,7 C -3,9 C -4,4 C 87 % 1007,3 hPa 0,0 l/m 0 min 0 min 0 W/m 3,2 km/h (1 Bft) 93,48 %
24.01.2019 07:48 -3,7 C -3,9 C -4,4 C 87 % 1007,3 hPa 0,0 l/m 0 min 0 min 0 W/m 3,2 km/h (1 Bft) 93,62 %
24.01.2019 07:50 -3,7 C -4,4 C -4,4 C 87 % 1007,3 hPa 0,0 l/m 0 min 0 min 0 W/m 6,4 km/h (2 Bft) 95,74 %
24.01.2019 07:52 -3,7 C -4,4 C -4,4 C 87 % 1007,3 hPa 0,0 l/m 0 min 0 min 0 W/m 3,2 km/h (1 Bft) 97,87 %
24.01.2019 07:54 -3,7 C -4,4 C -4,4 C 87 % 1007,4 hPa 0,0 l/m 0 min 0 min 0 W/m 0,0 km/h (0 Bft) 100,00 %
24.01.2019 07:56 -3,7 C -4,4 C -4,4 C 87 % 1007,5 hPa 0,0 l/m 0 min 0 min 0 W/m 3,2 km/h (1 Bft) 97,87 %
24.01.2019 07:58 -3,7 C -3,9 C -4,4 C 87 % 1007,5 hPa 0,0 l/m 0 min 0 min 0 W/m 6,4 km/h (2 Bft) 100,00 %
24.01.2019 08:00 -3,7 C -4,4 C -4,4 C 87 % 1007,6 hPa 0,0 l/m 0 min 0 min 0 W/m 3,2 km/h (1 Bft) 97,87 %
24.01.2019 08:02 -3,7 C -3,9 C -4,4 C 87 % 1007,6 hPa 0,0 l/m 0 min 0 min 0 W/m 3,2 km/h (1 Bft) 100,00 %
24.01.2019 08:04 -3,7 C -3,9 C -4,4 C 87 % 1007,7 hPa 0,0 l/m 0 min 0 min 0 W/m 0,0 km/h (0 Bft) 100,00 %
24.01.2019 08:06 -3,7 C -3,9 C -4,4 C 87 % 1007,7 hPa 0,0 l/m 0 min 0 min 0 W/m 3,2 km/h (1 Bft) 97,87 %
24.01.2019 08:08 -3,7 C -3,9 C -4,4 C 87 % 1007,7 hPa 0,0 l/m 0 min 0 min 0 W/m 9,7 km/h (2 Bft) 100,00 %
24.01.2019 08:10 -3,7 C -3,9 C -4,4 C 87 % 1007,7 hPa 0,0 l/m 0 min 0 min 0 W/m 6,4 km/h (2 Bft) 100,00 %
24.01.2019 08:12 -3,7 C -3,9 C -4,4 C 87 % 1007,8 hPa 0,0 l/m 0 min 0 min 0 W/m 6,4 km/h (2 Bft) 100,00 %
24.01.2019 08:14 -3,7 C -3,9 C -4,4 C 87 % 1007,8 hPa 0,0 l/m 0 min 0 min 0 W/m 6,4 km/h (2 Bft) 97,83 %
24.01.2019 08:16 -3,7 C -3,9 C -4,4 C 87 % 1007,9 hPa 0,0 l/m 0 min 0 min 0 W/m 3,2 km/h (1 Bft) 97,87 %
24.01.2019 08:18 -3,7 C -3,9 C -4,4 C 87 % 1007,9 hPa 0,0 l/m 0 min 0 min 0 W/m 3,2 km/h (1 Bft) 100,00 %
24.01.2019 08:20 -3,7 C -3,9 C -4,4 C 87 % 1007,9 hPa 0,0 l/m 0 min 0 min 0 W/m 9,7 km/h (2 Bft) 100,00 %
24.01.2019 08:22 -3,7 C -3,9 C -4,4 C 87 % 1007,9 hPa 0,0 l/m 0 min 0 min 0 W/m 6,4 km/h (2 Bft) 100,00 %
24.01.2019 08:24 -3,7 C -3,9 C -4,4 C 87 % 1007,9 hPa 0,0 l/m 0 min 0 min 0 W/m 6,4 km/h (2 Bft) 100,00 %
24.01.2019 08:26 -3,7 C -3,9 C -4,4 C 87 % 1008,0 hPa 0,0 l/m 0 min 0 min 0 W/m 6,4 km/h (2 Bft) 97,83 %
24.01.2019 08:28 -3,7 C -3,9 C -4,4 C 87 % 1008,1 hPa 0,0 l/m 0 min 0 min 0 W/m 9,7 km/h (2 Bft) 100,00 %
24.01.2019 08:30 -3,7 C -3,9 C -4,4 C 87 % 1008,1 hPa 0,0 l/m 0 min 0 min 0 W/m 9,7 km/h (2 Bft) 100,00 %
24.01.2019 08:32 -3,7 C -3,9 C -4,4 C 87 % 1008,2 hPa 0,0 l/m 0 min 0 min 0 W/m 6,4 km/h (2 Bft) 97,87 %
24.01.2019 08:34 -3,7 C -3,9 C -4,4 C 87 % 1008,2 hPa 0,0 l/m 0 min 0 min 0 W/m 6,4 km/h (2 Bft) 97,87 %
24.01.2019 08:36 -3,7 C -3,9 C -4,4 C 87 % 1008,3 hPa 0,0 l/m 0 min 0 min 0 W/m 9,7 km/h (2 Bft) 98,28 %
24.01.2019 08:38 -3,7 C -3,9 C -4,4 C 87 % 1008,3 hPa 0,0 l/m 0 min 0 min 0 W/m 9,7 km/h (2 Bft) 100,00 %
24.01.2019 08:40 -3,7 C -3,9 C -4,4 C 87 % 1008,3 hPa 0,0 l/m 0 min 0 min 0 W/m 6,4 km/h (2 Bft) 100,00 %
24.01.2019 08:42 -3,7 C -3,9 C -4,4 C 87 % 1008,3 hPa 0,0 l/m 0 min 0 min 0 W/m 6,4 km/h (2 Bft) 100,00 %
24.01.2019 08:44 -3,7 C -3,9 C -4,4 C 87 % 1008,4 hPa 0,0 l/m 0 min 0 min 0 W/m 3,2 km/h (1 Bft) 100,00 %
24.01.2019 08:46 -3,7 C -3,9 C -4,4 C 87 % 1008,4 hPa 0,0 l/m 0 min 0 min 5 W/m 3,2 km/h (1 Bft) 97,87 %
24.01.2019 08:48 -3,7 C -3,9 C -4,4 C 87 % 1008,5 hPa 0,0 l/m 0 min 0 min 5 W/m 0,0 km/h (0 Bft) 100,00 %
24.01.2019 08:50 -3,7 C -3,9 C -4,4 C 87 % 1008,5 hPa 0,0 l/m 0 min 0 min 5 W/m 3,2 km/h (1 Bft) 97,87 %
24.01.2019 08:52 -3,7 C -3,9 C -4,4 C 87 % 1008,6 hPa 0,0 l/m 0 min 0 min 5 W/m 3,2 km/h (1 Bft) 100,00 %
24.01.2019 08:54 -3,7 C -3,9 C -4,4 C 87 % 1008,5 hPa 0,0 l/m 0 min 0 min 6 W/m 0,0 km/h (0 Bft) 100,00 %
24.01.2019 08:56 -3,7 C -3,9 C -4,4 C 87 % 1008,5 hPa 0,0 l/m 0 min 0 min 7 W/m 0,0 km/h (0 Bft) 100,00 %
24.01.2019 08:58 -3,7 C -3,9 C -4,4 C 87 % 1008,5 hPa 0,0 l/m 0 min 0 min 7 W/m 0,0 km/h (0 Bft) 100,00 %
24.01.2019 09:00 -3,7 C -3,9 C -4,4 C 87 % 1008,6 hPa 0,0 l/m 0 min 0 min 8 W/m 3,2 km/h (1 Bft) 100,00 %
24.01.2019 09:02 -3,7 C -3,9 C -4,4 C 87 % 1008,6 hPa 0,0 l/m 0 min 0 min 9 W/m 3,2 km/h (1 Bft) 97,92 %
24.01.2019 09:04 -3,7 C -3,9 C -4,4 C 87 % 1008,6 hPa 0,0 l/m 0 min 0 min 9 W/m 3,2 km/h (1 Bft) 97,87 %
24.01.2019 09:06 -3,7 C -3,9 C -4,4 C 87 % 1008,7 hPa 0,0 l/m 0 min 0 min 9 W/m 6,4 km/h (2 Bft) 100,00 %
24.01.2019 09:08 -3,7 C -3,9 C -4,4 C 87 % 1008,7 hPa 0,0 l/m 0 min 0 min 10 W/m 6,4 km/h (2 Bft) 100,00 %
24.01.2019 09:10 -3,7 C -3,9 C -4,4 C 87 % 1008,7 hPa 0,0 l/m 0 min 0 min 11 W/m 3,2 km/h (1 Bft) 100,00 %
24.01.2019 09:12 -3,7 C -3,9 C -4,4 C 87 % 1008,7 hPa 0,0 l/m 0 min 0 min 11 W/m 6,4 km/h (2 Bft) 100,00 %
24.01.2019 09:14 -3,7 C -3,9 C -4,4 C 87 % 1008,8 hPa 0,0 l/m 0 min 0 min 11 W/m 6,4 km/h (2 Bft) 97,87 %
24.01.2019 09:16 -3,7 C -3,9 C -4,4 C 87 % 1008,8 hPa 0,0 l/m 0 min 0 min 12 W/m 12,9 km/h (3 Bft) 100,00 %
24.01.2019 09:18 -3,7 C -3,9 C -4,4 C 88 % 1008,8 hPa 0,0 l/m 0 min 0 min 12 W/m 6,4 km/h (2 Bft) 100,00 %
24.01.2019 09:20 -3,7 C -3,9 C -4,4 C 88 % 1008,9 hPa 0,0 l/m 0 min 0 min 12 W/m 6,4 km/h (2 Bft) 100,00 %
24.01.2019 09:22 -3,7 C -3,9 C -4,4 C 88 % 1008,9 hPa 0,0 l/m 0 min 0 min 12 W/m 9,7 km/h (2 Bft) 97,87 %
24.01.2019 09:24 -3,7 C -3,9 C -4,4 C 88 % 1008,9 hPa 0,0 l/m 0 min 0 min 14 W/m 9,7 km/h (2 Bft) 97,87 %
24.01.2019 09:26 -3,7 C -3,9 C -4,4 C 88 % 1008,9 hPa 0,0 l/m 0 min 0 min 14 W/m 6,4 km/h (2 Bft) 100,00 %
24.01.2019 09:28 -3,7 C -3,9 C -4,4 C 88 % 1008,9 hPa 0,0 l/m 0 min 0 min 14 W/m 6,4 km/h (2 Bft) 100,00 %
24.01.2019 09:30 -3,7 C -3,9 C -4,4 C 88 % 1008,8 hPa 0,0 l/m 0 min 0 min 16 W/m 6,4 km/h (2 Bft) 100,00 %
24.01.2019 09:32 -3,7 C -3,9 C -4,4 C 88 % 1008,9 hPa 0,0 l/m 0 min 0 min 16 W/m 3,2 km/h (1 Bft) 97,83 %
24.01.2019 09:34 -3,7 C -3,9 C -4,4 C 88 % 1008,9 hPa 0,0 l/m 0 min 0 min 16 W/m 3,2 km/h (1 Bft) 97,87 %
24.01.2019 09:36 -3,7 C -3,9 C -4,4 C 88 % 1008,9 hPa 0,0 l/m 0 min 0 min 18 W/m 6,4 km/h (2 Bft) 97,87 %
24.01.2019 09:38 -3,6 C -3,9 C -4,4 C 88 % 1008,9 hPa 0,0 l/m 0 min 0 min 18 W/m 9,7 km/h (2 Bft) 94,29 %
24.01.2019 09:40 -3,6 C -3,9 C -4,4 C 88 % 1008,9 hPa 0,0 l/m 0 min 0 min 19 W/m 6,4 km/h (2 Bft) 95,74 %
24.01.2019 09:42 -3,6 C -3,9 C -4,4 C 88 % 1008,8 hPa 0,0 l/m 0 min 0 min 21 W/m 9,7 km/h (2 Bft) 95,74 %
24.01.2019 09:44 -3,6 C -3,9 C -4,4 C 88 % 1008,8 hPa 0,0 l/m 0 min 0 min 23 W/m 6,4 km/h (2 Bft) 95,74 %
24.01.2019 09:46 -3,6 C -3,9 C -4,4 C 88 % 1008,8 hPa 0,0 l/m 0 min 0 min 25 W/m 9,7 km/h (2 Bft) 95,65 %
24.01.2019 09:48 -3,6 C -3,9 C -3,9 C 88 % 1008,9 hPa 0,0 l/m 0 min 0 min 26 W/m 9,7 km/h (2 Bft) 93,62 %
24.01.2019 09:50 -3,6 C -3,9 C -3,9 C 88 % 1008,8 hPa 0,0 l/m 0 min 0 min 26 W/m 9,7 km/h (2 Bft) 95,74 %
24.01.2019 09:52 -3,6 C -3,9 C -3,9 C 88 % 1008,8 hPa 0,0 l/m 0 min 0 min 26 W/m 6,4 km/h (2 Bft) 93,62 %
24.01.2019 09:54 -3,6 C -3,9 C -3,9 C 88 % 1008,8 hPa 0,0 l/m 0 min 0 min 28 W/m 6,4 km/h (2 Bft) 95,74 %
24.01.2019 09:56 -3,6 C -3,9 C -3,9 C 88 % 1008,8 hPa 0,0 l/m 0 min 0 min 28 W/m 3,2 km/h (1 Bft) 95,74 %
24.01.2019 09:58 -3,6 C -3,9 C -3,9 C 88 % 1008,8 hPa 0,0 l/m 0 min 0 min 28 W/m 6,4 km/h (2 Bft) 97,83 %
24.01.2019 10:00 -3,6 C -3,9 C -3,9 C 88 % 1008,8 hPa 0,0 l/m 0 min 0 min 29 W/m 3,2 km/h (1 Bft) 95,74 %
24.01.2019 10:02 -3,6 C -3,9 C -3,9 C 88 % 1008,8 hPa 0,0 l/m 0 min 0 min 30 W/m 6,4 km/h (2 Bft) 93,62 %
24.01.2019 10:04 -3,6 C -3,9 C -3,9 C 88 % 1008,8 hPa 0,0 l/m 0 min 0 min 31 W/m 6,4 km/h (2 Bft) 95,74 %
24.01.2019 10:06 -3,6 C -3,9 C -3,9 C 87 % 1008,8 hPa 0,0 l/m 0 min 0 min 32 W/m 6,4 km/h (2 Bft) 93,10 %
24.01.2019 10:08 -3,6 C -3,3 C -3,9 C 87 % 1008,8 hPa 0,0 l/m 0 min 0 min 33 W/m 3,2 km/h (1 Bft) 94,44 %
24.01.2019 10:10 -3,6 C -3,3 C -3,9 C 87 % 1008,8 hPa 0,0 l/m 0 min 0 min 34 W/m 3,2 km/h (1 Bft) 94,44 %
24.01.2019 10:12 -3,6 C -3,9 C -3,9 C 87 % 1008,8 hPa 0,0 l/m 0 min 0 min 36 W/m 3,2 km/h (1 Bft) 95,74 %
24.01.2019 10:14 -3,6 C -3,3 C -3,9 C 87 % 1008,7 hPa 0,0 l/m 0 min 0 min 39 W/m 3,2 km/h (1 Bft) 97,87 %
24.01.2019 10:16 -3,6 C -3,3 C -3,9 C 87 % 1008,7 hPa 0,0 l/m 0 min 0 min 41 W/m 3,2 km/h (1 Bft) 97,83 %
24.01.2019 10:18 -3,6 C -3,3 C -3,9 C 87 % 1008,6 hPa 0,0 l/m 0 min 0 min 43 W/m 3,2 km/h (1 Bft) 97,87 %
24.01.2019 10:20 -3,6 C -3,3 C -3,9 C 87 % 1008,7 hPa 0,0 l/m 0 min 0 min 45 W/m 3,2 km/h (1 Bft) 97,87 %
24.01.2019 10:22 -3,5 C -3,3 C -3,9 C 87 % 1008,7 hPa 0,0 l/m 0 min 0 min 47 W/m 3,2 km/h (1 Bft) 97,87 %
24.01.2019 10:24 -3,5 C -3,3 C -3,9 C 87 % 1008,7 hPa 0,0 l/m 0 min 0 min 47 W/m 0,0 km/h (0 Bft) 100,00 %
24.01.2019 10:26 -3,5 C -3,3 C -3,9 C 87 % 1008,8 hPa 0,0 l/m 0 min 0 min 49 W/m 3,2 km/h (1 Bft) 100,00 %
24.01.2019 10:28 -3,5 C -3,3 C -3,9 C 87 % 1008,8 hPa 0,0 l/m 0 min 0 min 50 W/m 6,4 km/h (2 Bft) 97,83 %
24.01.2019 10:30 -3,5 C -3,3 C -3,9 C 87 % 1008,8 hPa 0,0 l/m 0 min 0 min 52 W/m 6,4 km/h (2 Bft) 100,00 %
24.01.2019 10:32 -3,5 C -3,3 C -3,9 C 87 % 1008,8 hPa 0,0 l/m 0 min 0 min 53 W/m 6,4 km/h (2 Bft) 100,00 %
24.01.2019 10:34 -3,5 C -3,3 C -3,9 C 87 % 1008,8 hPa 0,0 l/m 0 min 0 min 52 W/m 6,4 km/h (2 Bft) 100,00 %
24.01.2019 10:36 -3,5 C -3,3 C -3,9 C 87 % 1008,7 hPa 0,0 l/m 0 min 0 min 54 W/m 6,4 km/h (2 Bft) 100,00 %
24.01.2019 10:38 -3,5 C -3,3 C -3,9 C 87 % 1008,8 hPa 0,0 l/m 0 min 0 min 56 W/m 6,4 km/h (2 Bft) 95,74 %
24.01.2019 10:40 -3,5 C -3,3 C -3,9 C 87 % 1008,8 hPa 0,0 l/m 0 min 0 min 57 W/m 6,4 km/h (2 Bft) 97,96 %
24.01.2019 10:42 -3,5 C -3,3 C -3,9 C 87 % 1008,8 hPa 0,0 l/m 0 min 0 min 59 W/m 3,2 km/h (1 Bft) 100,00 %
24.01.2019 10:44 -3,5 C -3,3 C -3,9 C 87 % 1008,9 hPa 0,0 l/m 0 min 0 min 60 W/m 3,2 km/h (1 Bft) 95,74 %
24.01.2019 10:46 -3,5 C -3,3 C -3,9 C 87 % 1008,9 hPa 0,0 l/m 0 min 0 min 62 W/m 3,2 km/h (1 Bft) 97,87 %
24.01.2019 10:48 -3,4 C -3,3 C -3,9 C 87 % 1008,9 hPa 0,0 l/m 0 min 0 min 63 W/m 3,2 km/h (1 Bft) 97,87 %
24.01.2019 10:50 -3,4 C -2,8 C -3,3 C 87 % 1008,9 hPa 0,0 l/m 0 min 0 min 65 W/m 3,2 km/h (1 Bft) 97,87 %
24.01.2019 10:52 -3,4 C -2,8 C -3,3 C 87 % 1008,9 hPa 0,0 l/m 0 min 0 min 64 W/m 6,4 km/h (2 Bft) 97,83 %
24.01.2019 10:54 -3,4 C -2,8 C -3,3 C 87 % 1008,9 hPa 0,0 l/m 0 min 0 min 63 W/m 3,2 km/h (1 Bft) 97,87 %
24.01.2019 10:56 -3,4 C -2,8 C -3,3 C 87 % 1008,9 hPa 0,0 l/m 0 min 0 min 65 W/m 3,2 km/h (1 Bft) 97,87 %
24.01.2019 10:58 -3,4 C -2,8 C -3,3 C 87 % 1009,0 hPa 0,0 l/m 0 min 0 min 65 W/m 6,4 km/h (2 Bft) 97,87 %
24.01.2019 11:00 -3,3 C -2,8 C -3,3 C 87 % 1009,0 hPa 0,0 l/m 0 min 0 min 63 W/m 3,2 km/h (1 Bft) 95,74 %
24.01.2019 11:02 -3,3 C -2,8 C -3,3 C 87 % 1009,1 hPa 0,0 l/m 0 min 0 min 62 W/m 3,2 km/h (1 Bft) 95,74 %
24.01.2019 11:04 -3,3 C -2,8 C -3,3 C 87 % 1009,1 hPa 0,0 l/m 0 min 0 min 63 W/m 6,4 km/h (2 Bft) 97,87 %
24.01.2019 11:06 -3,3 C -2,8 C -3,3 C 87 % 1009,0 hPa 0,0 l/m 0 min 0 min 63 W/m 3,2 km/h (1 Bft) 97,87 %
24.01.2019 11:08 -3,3 C -3,3 C -3,3 C 87 % 1009,1 hPa 0,0 l/m 0 min 0 min 63 W/m 3,2 km/h (1 Bft) 97,87 %
24.01.2019 11:10 -3,3 C -2,8 C -3,3 C 87 % 1009,1 hPa 0,0 l/m 0 min 0 min 65 W/m 3,2 km/h (1 Bft) 97,87 %
24.01.2019 11:12 -3,3 C -3,3 C -3,3 C 86 % 1009,1 hPa 0,0 l/m 0 min 0 min 65 W/m 3,2 km/h (1 Bft) 97,87 %
24.01.2019 11:14 -3,3 C -2,8 C -3,3 C 86 % 1009,1 hPa 0,0 l/m 0 min 0 min 65 W/m 3,2 km/h (1 Bft) 97,83 %
24.01.2019 11:16 -3,2 C -2,8 C -3,3 C 86 % 1009,1 hPa 0,0 l/m 0 min 0 min 65 W/m 3,2 km/h (1 Bft) 95,74 %
24.01.2019 11:18 -3,2 C -3,3 C -3,3 C 86 % 1009,2 hPa 0,0 l/m 0 min 0 min 65 W/m 3,2 km/h (1 Bft) 97,87 %
24.01.2019 11:20 -3,2 C -3,3 C -3,3 C 86 % 1009,2 hPa 0,0 l/m 0 min 0 min 65 W/m 6,4 km/h (2 Bft) 97,87 %
24.01.2019 11:22 -3,2 C -2,8 C -3,3 C 86 % 1009,2 hPa 0,0 l/m 0 min 0 min 65 W/m 6,4 km/h (2 Bft) 97,87 %
24.01.2019 11:24 -3,2 C -3,3 C -3,3 C 86 % 1009,1 hPa 0,0 l/m 0 min 0 min 65 W/m 6,4 km/h (2 Bft) 97,87 %
24.01.2019 11:26 -3,2 C -3,3 C -3,3 C 86 % 1009,2 hPa 0,0 l/m 0 min 0 min 65 W/m 3,2 km/h (1 Bft) 97,83 %
24.01.2019 11:28 -3,2 C -3,3 C -3,3 C 86 % 1009,2 hPa 0,0 l/m 0 min 0 min 67 W/m 3,2 km/h (1 Bft) 97,87 %
24.01.2019 11:30 -3,2 C -2,8 C -3,3 C 86 % 1009,2 hPa 0,0 l/m 0 min 0 min 68 W/m 9,7 km/h (2 Bft) 97,87 %
24.01.2019 11:32 -3,2 C -2,8 C -3,3 C 86 % 1009,2 hPa 0,0 l/m 0 min 0 min 69 W/m 6,4 km/h (2 Bft) 93,75 %
24.01.2019 11:34 -3,2 C -2,8 C -3,3 C 86 % 1009,2 hPa 0,0 l/m 0 min 0 min 69 W/m 6,4 km/h (2 Bft) 97,87 %
24.01.2019 11:36 -3,1 C -2,8 C -3,3 C 86 % 1009,3 hPa 0,0 l/m 0 min 0 min 69 W/m 3,2 km/h (1 Bft) 95,74 %
24.01.2019 11:38 -3,1 C -2,8 C -3,3 C 86 % 1009,2 hPa 0,0 l/m 0 min 0 min 67 W/m 6,4 km/h (2 Bft) 97,83 %
24.01.2019 11:40 -3,1 C -2,8 C -3,3 C 86 % 1009,3 hPa 0,0 l/m 0 min 0 min 66 W/m 6,4 km/h (2 Bft) 97,30 %
24.01.2019 11:42 -3,1 C -2,8 C -3,3 C 86 % 1009,3 hPa 0,0 l/m 0 min 0 min 63 W/m 6,4 km/h (2 Bft) 95,65 %
24.01.2019 11:44 -3,1 C -2,8 C -3,3 C 85 % 1009,3 hPa 0,0 l/m 0 min 0 min 61 W/m 9,7 km/h (2 Bft) 100,00 %
24.01.2019 11:46 -3,1 C -2,8 C -3,3 C 85 % 1009,3 hPa 0,0 l/m 0 min 0 min 62 W/m 6,4 km/h (2 Bft) 100,00 %
24.01.2019 11:48 -3,1 C -2,8 C -3,3 C 86 % 1009,2 hPa 0,0 l/m 0 min 0 min 63 W/m 6,4 km/h (2 Bft) 95,74 %
24.01.2019 11:50 -3,1 C -2,8 C -3,3 C 86 % 1009,2 hPa 0,0 l/m 0 min 0 min 64 W/m 6,4 km/h (2 Bft) 97,87 %
24.01.2019 11:52 -3,1 C -2,8 C -3,3 C 86 % 1009,3 hPa 0,0 l/m 0 min 0 min 66 W/m 6,4 km/h (2 Bft) 97,87 %
24.01.2019 11:54 -3,1 C -2,8 C -3,3 C 86 % 1009,3 hPa 0,0 l/m 0 min 0 min 69 W/m 6,4 km/h (2 Bft) 100,00 %
24.01.2019 11:56 -3,1 C -2,8 C -3,3 C 85 % 1009,3 hPa 0,0 l/m 0 min 0 min 70 W/m 3,2 km/h (1 Bft) 100,00 %
24.01.2019 11:58 -3,0 C -2,8 C -3,3 C 85 % 1009,2 hPa 0,0 l/m 0 min 0 min 70 W/m 3,2 km/h (1 Bft) 97,87 %
24.01.2019 12:00 -3,0 C -2,8 C -3,3 C 85 % 1009,2 hPa 0,0 l/m 0 min 0 min 74 W/m 6,4 km/h (2 Bft) 95,74 %
24.01.2019 12:02 -3,0 C -2,8 C -3,3 C 85 % 1009,2 hPa 0,0 l/m 0 min 0 min 77 W/m 3,2 km/h (1 Bft) 97,87 %
24.01.2019 12:04 -3,0 C -2,8 C -3,3 C 85 % 1009,1 hPa 0,0 l/m 0 min 0 min 77 W/m 6,4 km/h (2 Bft) 100,00 %
24.01.2019 12:08 -2,9 C -2,2 C -2,8 C 85 % 1009,3 hPa 0,0 l/m 0 min 0 min 82 W/m 6,4 km/h (2 Bft) 97,85 %
24.01.2019 12:10 -2,9 C -2,2 C -2,8 C 85 % 1009,3 hPa 0,0 l/m 0 min 0 min 84 W/m 6,4 km/h (2 Bft) 95,74 %
24.01.2019 12:12 -2,9 C -2,2 C -2,8 C 85 % 1009,3 hPa 0,0 l/m 0 min 0 min 85 W/m 6,4 km/h (2 Bft) 95,74 %
24.01.2019 12:14 -2,8 C -2,2 C -2,8 C 85 % 1009,2 hPa 0,0 l/m 0 min 0 min 86 W/m 9,7 km/h (2 Bft) 95,74 %
24.01.2019 12:16 -2,8 C -2,2 C -2,8 C 85 % 1009,3 hPa 0,0 l/m 0 min 0 min 85 W/m 6,4 km/h (2 Bft) 95,65 %
24.01.2019 12:18 -2,8 C -2,2 C -2,8 C 85 % 1009,2 hPa 0,0 l/m 0 min 0 min 84 W/m 6,4 km/h (2 Bft) 95,74 %
24.01.2019 12:20 -2,8 C -2,2 C -2,8 C 85 % 1009,2 hPa 0,0 l/m 0 min 0 min 84 W/m 6,4 km/h (2 Bft) 95,74 %
24.01.2019 12:22 -2,8 C -2,8 C -2,8 C 85 % 1009,3 hPa 0,0 l/m 0 min 0 min 84 W/m 3,2 km/h (1 Bft) 95,74 %
24.01.2019 12:24 -2,8 C -2,2 C -2,8 C 85 % 1009,4 hPa 0,0 l/m 0 min 0 min 84 W/m 3,2 km/h (1 Bft) 95,74 %
24.01.2019 12:26 -2,7 C -2,2 C -2,8 C 85 % 1009,3 hPa 0,0 l/m 0 min 0 min 84 W/m 3,2 km/h (1 Bft) 93,62 %
24.01.2019 12:28 -2,7 C -2,2 C -2,8 C 85 % 1009,3 hPa 0,0 l/m 0 min 0 min 88 W/m 6,4 km/h (2 Bft) 95,65 %
24.01.2019 12:30 -2,7 C -2,2 C -2,8 C 85 % 1009,3 hPa 0,0 l/m 0 min 0 min 92 W/m 6,4 km/h (2 Bft) 95,74 %
24.01.2019 12:32 -2,7 C -2,2 C -2,8 C 85 % 1009,4 hPa 0,0 l/m 0 min 0 min 95 W/m 6,4 km/h (2 Bft) 93,62 %
24.01.2019 12:34 -2,7 C -2,2 C -2,8 C 85 % 1009,5 hPa 0,0 l/m 0 min 0 min 95 W/m 6,4 km/h (2 Bft) 95,74 %
24.01.2019 12:36 -2,7 C -2,2 C -2,8 C 84 % 1009,6 hPa 0,0 l/m 0 min 0 min 92 W/m 3,2 km/h (1 Bft) 95,74 %
24.01.2019 12:38 -2,6 C -2,2 C -2,8 C 85 % 1009,5 hPa 0,0 l/m 0 min 0 min 92 W/m 6,4 km/h (2 Bft) 95,74 %
24.01.2019 12:40 -2,6 C -2,2 C -2,8 C 85 % 1009,5 hPa 0,0 l/m 0 min 0 min 97 W/m 6,4 km/h (2 Bft) 95,65 %
24.01.2019 12:42 -2,6 C -2,2 C -2,8 C 84 % 1009,4 hPa 0,0 l/m 0 min 0 min 98 W/m 6,4 km/h (2 Bft) 95,74 %
24.01.2019 12:44 -2,6 C -2,2 C -2,8 C 84 % 1009,4 hPa 0,0 l/m 0 min 0 min 98 W/m 3,2 km/h (1 Bft) 93,62 %
24.01.2019 12:46 -2,6 C -2,2 C -2,8 C 84 % 1009,5 hPa 0,0 l/m 0 min 0 min 97 W/m 6,4 km/h (2 Bft) 95,74 %
24.01.2019 12:48 -2,6 C -2,2 C -2,8 C 84 % 1009,5 hPa 0,0 l/m 0 min 0 min 97 W/m 3,2 km/h (1 Bft) 95,74 %
24.01.2019 12:50 -2,6 C -2,2 C -2,8 C 84 % 1009,4 hPa 0,0 l/m 0 min 0 min 98 W/m 6,4 km/h (2 Bft) 91,49 %
24.01.2019 12:52 -2,6 C -2,2 C -2,8 C 84 % 1009,4 hPa 0,0 l/m 0 min 0 min 98 W/m 6,4 km/h (2 Bft) 93,48 %
24.01.2019 12:54 -2,6 C -2,2 C -2,8 C 84 % 1009,4 hPa 0,0 l/m 0 min 0 min 98 W/m 9,7 km/h (2 Bft) 95,74 %
24.01.2019 12:56 -2,6 C -2,2 C -2,8 C 84 % 1009,4 hPa 0,0 l/m 0 min 0 min 97 W/m 3,2 km/h (1 Bft) 95,74 %
24.01.2019 12:58 -2,6 C -2,2 C -2,8 C 84 % 1009,4 hPa 0,0 l/m 0 min 0 min 97 W/m 6,4 km/h (2 Bft) 97,87 %
24.01.2019 13:00 -2,6 C -2,2 C -2,8 C 84 % 1009,4 hPa 0,0 l/m 0 min 0 min 98 W/m 6,4 km/h (2 Bft) 97,87 %
24.01.2019 13:02 -2,6 C -2,2 C -2,8 C 84 % 1009,4 hPa 0,0 l/m 0 min 0 min 97 W/m 6,4 km/h (2 Bft) 93,62 %
24.01.2019 13:04 -2,6 C -2,2 C -2,8 C 83 % 1009,4 hPa 0,0 l/m 0 min 0 min 94 W/m 3,2 km/h (1 Bft) 100,00 %
24.01.2019 13:06 -2,6 C -2,2 C -2,8 C 83 % 1009,3 hPa 0,0 l/m 0 min 0 min 93 W/m 6,4 km/h (2 Bft) 100,00 %
24.01.2019 13:08 -2,6 C -2,2 C -2,8 C 83 % 1009,4 hPa 0,0 l/m 0 min 0 min 91 W/m 6,4 km/h (2 Bft) 100,00 %
24.01.2019 13:10 -2,6 C -2,2 C -2,8 C 83 % 1009,4 hPa 0,0 l/m 0 min 0 min 87 W/m 3,2 km/h (1 Bft) 97,87 %
24.01.2019 13:12 -2,5 C -2,2 C -2,8 C 83 % 1009,5 hPa 0,0 l/m 0 min 0 min 88 W/m 9,7 km/h (2 Bft) 100,00 %
24.01.2019 13:14 -2,5 C -2,2 C -2,8 C 83 % 1009,5 hPa 0,0 l/m 0 min 0 min 87 W/m 9,7 km/h (2 Bft) 100,00 %
24.01.2019 13:16 -2,5 C -2,2 C -2,8 C 83 % 1009,4 hPa 0,0 l/m 0 min 0 min 87 W/m 6,4 km/h (2 Bft) 100,00 %
24.01.2019 13:18 -2,4 C -1,7 C -2,8 C 83 % 1009,4 hPa 0,0 l/m 0 min 0 min 90 W/m 9,7 km/h (2 Bft) 100,00 %
24.01.2019 13:20 -2,4 C -1,7 C -2,8 C 83 % 1009,4 hPa 0,0 l/m 0 min 0 min 92 W/m 9,7 km/h (2 Bft) 100,00 %
24.01.2019 13:22 -2,4 C -2,2 C -2,8 C 83 % 1009,4 hPa 0,0 l/m 0 min 0 min 93 W/m 9,7 km/h (2 Bft) 95,74 %
24.01.2019 13:24 -2,4 C -2,2 C -2,8 C 83 % 1009,4 hPa 0,0 l/m 0 min 0 min 91 W/m 6,4 km/h (2 Bft) 100,00 %
24.01.2019 13:26 -2,4 C -2,2 C -2,8 C 83 % 1009,4 hPa 0,0 l/m 0 min 0 min 91 W/m 9,7 km/h (2 Bft) 100,00 %
24.01.2019 13:28 -2,4 C -2,2 C -2,8 C 83 % 1009,4 hPa 0,0 l/m 0 min 0 min 90 W/m 12,9 km/h (3 Bft) 100,00 %
24.01.2019 13:30 -2,4 C -2,2 C -2,8 C 83 % 1009,4 hPa 0,0 l/m 0 min 0 min 90 W/m 6,4 km/h (2 Bft) 97,87 %
24.01.2019 13:32 -2,4 C -2,2 C -2,8 C 83 % 1009,5 hPa 0,0 l/m 0 min 0 min 90 W/m 6,4 km/h (2 Bft) 100,00 %
24.01.2019 13:34 -2,4 C -2,2 C -2,8 C 83 % 1009,4 hPa 0,0 l/m 0 min 0 min 90 W/m 9,7 km/h (2 Bft) 100,00 %
24.01.2019 13:36 -2,4 C -2,2 C -2,8 C 83 % 1009,3 hPa 0,0 l/m 0 min 0 min 93 W/m 6,4 km/h (2 Bft) 100,00 %
24.01.2019 13:38 -2,4 C -2,2 C -2,8 C 83 % 1009,4 hPa 0,0 l/m 0 min 0 min 94 W/m 6,4 km/h (2 Bft) 100,00 %
24.01.2019 13:40 -2,4 C -2,2 C -2,8 C 83 % 1009,5 hPa 0,0 l/m 0 min 0 min 91 W/m 3,2 km/h (1 Bft) 97,87 %
24.01.2019 13:42 -2,4 C -2,2 C -2,8 C 83 % 1009,5 hPa 0,0 l/m 0 min 0 min 90 W/m 9,7 km/h (2 Bft) 100,00 %
24.01.2019 13:44 -2,4 C -2,2 C -2,8 C 83 % 1009,5 hPa 0,0 l/m 0 min 0 min 91 W/m 6,4 km/h (2 Bft) 97,87 %
24.01.2019 13:46 -2,4 C -2,2 C -2,8 C 83 % 1009,4 hPa 0,0 l/m 0 min 0 min 95 W/m 6,4 km/h (2 Bft) 100,00 %
24.01.2019 13:48 -2,4 C -2,2 C -2,8 C 83 % 1009,5 hPa 0,0 l/m 0 min 0 min 97 W/m 6,4 km/h (2 Bft) 100,00 %
24.01.2019 13:50 -2,4 C -2,2 C -2,8 C 83 % 1009,4 hPa 0,0 l/m 0 min 0 min 98 W/m 6,4 km/h (2 Bft) 97,83 %
24.01.2019 13:52 -2,4 C -2,2 C -2,8 C 83 % 1009,3 hPa 0,0 l/m 0 min 0 min 100 W/m 6,4 km/h (2 Bft) 100,00 %
24.01.2019 13:54 -2,4 C -2,2 C -2,8 C 82 % 1009,3 hPa 0,0 l/m 0 min 0 min 104 W/m 6,4 km/h (2 Bft) 97,87 %
24.01.2019 13:56 -2,4 C -2,2 C -2,8 C 82 % 1009,3 hPa 0,0 l/m 0 min 0 min 107 W/m 3,2 km/h (1 Bft) 95,74 %
24.01.2019 13:58 -2,5 C -2,2 C -2,8 C 82 % 1009,2 hPa 0,0 l/m 0 min 0 min 107 W/m 6,4 km/h (2 Bft) 97,87 %
24.01.2019 14:00 -2,4 C -2,2 C -2,8 C 82 % 1009,3 hPa 0,0 l/m 0 min 0 min 108 W/m 6,4 km/h (2 Bft) 97,87 %
24.01.2019 14:02 -2,4 C -2,2 C -2,8 C 82 % 1009,3 hPa 0,0 l/m 0 min 0 min 107 W/m 6,4 km/h (2 Bft) 95,65 %
24.01.2019 14:04 -2,5 C -2,2 C -2,8 C 82 % 1009,2 hPa 0,0 l/m 0 min 0 min 111 W/m 6,4 km/h (2 Bft) 97,87 %
24.01.2019 14:06 -2,5 C -2,2 C -2,8 C 82 % 1009,2 hPa 0,0 l/m 0 min 0 min 113 W/m 6,4 km/h (2 Bft) 97,87 %
24.01.2019 14:08 -2,5 C -2,2 C -2,8 C 82 % 1009,2 hPa 0,0 l/m 0 min 0 min 113 W/m 6,4 km/h (2 Bft) 97,87 %
24.01.2019 14:10 -2,5 C -2,2 C -2,8 C 82 % 1009,2 hPa 0,0 l/m 0 min 0 min 109 W/m 6,4 km/h (2 Bft) 95,74 %
24.01.2019 14:12 -2,5 C -2,8 C -2,8 C 82 % 1009,3 hPa 0,0 l/m 0 min 0 min 100 W/m 9,7 km/h (2 Bft) 97,87 %
24.01.2019 14:14 -2,5 C -2,8 C -2,8 C 81 % 1009,3 hPa 0,0 l/m 0 min 0 min 97 W/m 6,4 km/h (2 Bft) 95,65 %
24.01.2019 14:16 -2,6 C -2,8 C -2,8 C 81 % 1009,3 hPa 0,0 l/m 0 min 0 min 94 W/m 6,4 km/h (2 Bft) 97,87 %
24.01.2019 14:18 -2,6 C -2,8 C -2,8 C 81 % 1009,4 hPa 0,0 l/m 0 min 0 min 90 W/m 12,9 km/h (3 Bft) 95,74 %
24.01.2019 14:20 -2,6 C -2,8 C -2,8 C 81 % 1009,4 hPa 0,0 l/m 0 min 0 min 89 W/m 3,2 km/h (1 Bft) 97,87 %
24.01.2019 14:22 -2,6 C -2,2 C -2,8 C 81 % 1009,4 hPa 0,0 l/m 0 min 0 min 84 W/m 6,4 km/h (2 Bft) 95,74 %
24.01.2019 14:24 -2,6 C -2,2 C -2,8 C 82 % 1009,5 hPa 0,0 l/m 0 min 0 min 83 W/m 6,4 km/h (2 Bft) 97,83 %
24.01.2019 14:26 -2,6 C -2,2 C -2,8 C 82 % 1009,5 hPa 0,0 l/m 0 min 0 min 83 W/m 9,7 km/h (2 Bft) 97,87 %
24.01.2019 14:28 -2,6 C -2,2 C -2,8 C 82 % 1009,5 hPa 0,0 l/m 0 min 0 min 83 W/m 6,4 km/h (2 Bft) 95,74 %
24.01.2019 14:30 -2,6 C -2,8 C -2,8 C 82 % 1009,5 hPa 0,0 l/m 0 min 0 min 83 W/m 6,4 km/h (2 Bft) 97,87 %
24.01.2019 14:32 -2,6 C -2,8 C -2,8 C 82 % 1009,5 hPa 0,0 l/m 0 min 0 min 83 W/m 3,2 km/h (1 Bft) 95,74 %
24.01.2019 14:34 -2,6 C -2,8 C -2,8 C 82 % 1009,5 hPa 0,0 l/m 0 min 0 min 84 W/m 3,2 km/h (1 Bft) 97,87 %
24.01.2019 14:36 -2,6 C -2,8 C -2,8 C 82 % 1009,5 hPa 0,0 l/m 0 min 0 min 80 W/m 6,4 km/h (2 Bft) 97,83 %
24.01.2019 14:38 -2,6 C -2,8 C -2,8 C 82 % 1009,5 hPa 0,0 l/m 0 min 0 min 76 W/m 6,4 km/h (2 Bft) 97,87 %
24.01.2019 14:40 -2,6 C -2,8 C -2,8 C 82 % 1009,5 hPa 0,0 l/m 0 min 0 min 74 W/m 3,2 km/h (1 Bft) 97,87 %
24.01.2019 14:42 -2,6 C -2,8 C -2,8 C 82 % 1009,6 hPa 0,0 l/m 0 min 0 min 72 W/m 0,0 km/h (0 Bft) 95,74 %
24.01.2019 14:44 -2,6 C -2,2 C -2,8 C 82 % 1009,6 hPa 0,0 l/m 0 min 0 min 72 W/m 6,4 km/h (2 Bft) 93,62 %
24.01.2019 14:46 -2,6 C -2,2 C -2,8 C 82 % 1009,6 hPa 0,0 l/m 0 min 0 min 71 W/m 6,4 km/h (2 Bft) 93,62 %
24.01.2019 14:48 -2,6 C -2,2 C -2,8 C 82 % 1009,5 hPa 0,0 l/m 0 min 0 min 69 W/m 6,4 km/h (2 Bft) 95,65 %
24.01.2019 14:50 -2,6 C -2,8 C -2,8 C 82 % 1009,6 hPa 0,0 l/m 0 min 0 min 67 W/m 6,4 km/h (2 Bft) 95,74 %
24.01.2019 14:52 -2,6 C -2,8 C -3,3 C 82 % 1009,7 hPa 0,0 l/m 0 min 0 min 67 W/m 12,9 km/h (3 Bft) 95,74 %
24.01.2019 14:54 -2,6 C -2,8 C -3,3 C 82 % 1009,7 hPa 0,0 l/m 0 min 0 min 65 W/m 6,4 km/h (2 Bft) 95,74 %
24.01.2019 14:56 -2,6 C -2,8 C -3,3 C 82 % 1009,6 hPa 0,0 l/m 0 min 0 min 63 W/m 6,4 km/h (2 Bft) 97,87 %
24.01.2019 14:58 -2,6 C -2,8 C -3,3 C 82 % 1009,6 hPa 0,0 l/m 0 min 0 min 63 W/m 6,4 km/h (2 Bft) 97,87 %
24.01.2019 15:00 -2,6 C -2,8 C -3,3 C 82 % 1009,5 hPa 0,0 l/m 0 min 0 min 62 W/m 3,2 km/h (1 Bft) 95,65 %
24.01.2019 15:02 -2,6 C -2,8 C -3,3 C 82 % 1009,5 hPa 0,0 l/m 0 min 0 min 62 W/m 9,7 km/h (2 Bft) 95,74 %
24.01.2019 15:04 -2,7 C -3,3 C -3,3 C 82 % 1009,5 hPa 0,0 l/m 0 min 0 min 61 W/m 9,7 km/h (2 Bft) 91,49 %
24.01.2019 15:06 -2,7 C -3,3 C -3,9 C 82 % 1009,5 hPa 0,0 l/m 0 min 0 min 56 W/m 6,4 km/h (2 Bft) 95,74 %
24.01.2019 15:08 -2,7 C -3,3 C -3,3 C 82 % 1009,5 hPa 0,0 l/m 0 min 0 min 54 W/m 3,2 km/h (1 Bft) 98,15 %
24.01.2019 15:10 -2,7 C -3,3 C -3,3 C 82 % 1009,5 hPa 0,0 l/m 0 min 0 min 54 W/m 9,7 km/h (2 Bft) 97,87 %
24.01.2019 15:12 -2,8 C -3,3 C -3,3 C 82 % 1009,5 hPa 0,0 l/m 0 min 0 min 53 W/m 9,7 km/h (2 Bft) 91,49 %
24.01.2019 15:14 -2,8 C -3,3 C -3,3 C 82 % 1009,6 hPa 0,0 l/m 0 min 0 min 52 W/m 3,2 km/h (1 Bft) 91,49 %
24.01.2019 15:16 -2,8 C -2,8 C -3,3 C 82 % 1009,5 hPa 0,0 l/m 0 min 0 min 47 W/m 3,2 km/h (1 Bft) 97,87 %
24.01.2019 15:18 -2,8 C -3,3 C -3,3 C 82 % 1009,6 hPa 0,0 l/m 0 min 0 min 46 W/m 3,2 km/h (1 Bft) 93,62 %
24.01.2019 15:20 -2,8 C -3,3 C -3,3 C 82 % 1009,5 hPa 0,0 l/m 0 min 0 min 46 W/m 6,4 km/h (2 Bft) 93,48 %
24.01.2019 15:22 -2,8 C -3,3 C -3,3 C 82 % 1009,6 hPa 0,0 l/m 0 min 0 min 44 W/m 3,2 km/h (1 Bft) 95,74 %
24.01.2019 15:24 -2,8 C -3,3 C -3,3 C 82 % 1009,7 hPa 0,0 l/m 0 min 0 min 41 W/m 3,2 km/h (1 Bft) 97,87 %
24.01.2019 15:26 -2,8 C -3,3 C -3,3 C 82 % 1009,7 hPa 0,0 l/m 0 min 0 min 40 W/m 3,2 km/h (1 Bft) 95,74 %
24.01.2019 15:28 -2,8 C -3,3 C -3,3 C 82 % 1009,7 hPa 0,0 l/m 0 min 0 min 40 W/m 3,2 km/h (1 Bft) 95,74 %
24.01.2019 15:30 -2,8 C -3,3 C -3,3 C 82 % 1009,7 hPa 0,0 l/m 0 min 0 min 39 W/m 3,2 km/h (1 Bft) 97,83 %
24.01.2019 15:32 -2,8 C -3,3 C -3,3 C 82 % 1009,7 hPa 0,0 l/m 0 min 0 min 38 W/m 3,2 km/h (1 Bft) 97,87 %
24.01.2019 15:34 -2,8 C -3,3 C -3,9 C 82 % 1009,7 hPa 0,0 l/m 0 min 0 min 37 W/m 0,0 km/h (0 Bft) 95,74 %
24.01.2019 15:36 -2,8 C -3,3 C -3,9 C 82 % 1009,7 hPa 0,0 l/m 0 min 0 min 35 W/m 3,2 km/h (1 Bft) 97,87 %
24.01.2019 15:38 -2,8 C -3,3 C -3,9 C 82 % 1009,7 hPa 0,0 l/m 0 min 0 min 33 W/m 6,4 km/h (2 Bft) 97,87 %
24.01.2019 15:40 -2,9 C -3,3 C -3,3 C 82 % 1009,7 hPa 0,0 l/m 0 min 0 min 33 W/m 3,2 km/h (1 Bft) 97,87 %
24.01.2019 15:42 -2,9 C -3,3 C -3,9 C 83 % 1009,7 hPa 0,0 l/m 0 min 0 min 33 W/m 6,4 km/h (2 Bft) 95,65 %
24.01.2019 15:44 -2,8 C -3,3 C -3,3 C 83 % 1009,8 hPa 0,0 l/m 0 min 0 min 33 W/m 3,2 km/h (1 Bft) 95,74 %
24.01.2019 15:46 -2,9 C -3,3 C -3,9 C 83 % 1009,8 hPa 0,0 l/m 0 min 0 min 32 W/m 0,0 km/h (0 Bft) 97,87 %
24.01.2019 15:48 -2,9 C -3,3 C -3,9 C 83 % 1009,8 hPa 0,0 l/m 0 min 0 min 31 W/m 6,4 km/h (2 Bft) 97,87 %
24.01.2019 15:50 -2,9 C -3,3 C -3,9 C 83 % 1009,9 hPa 0,0 l/m 0 min 0 min 30 W/m 6,4 km/h (2 Bft) 97,87 %
24.01.2019 15:52 -2,9 C -3,3 C -3,9 C 83 % 1009,9 hPa 0,0 l/m 0 min 0 min 30 W/m 3,2 km/h (1 Bft) 97,87 %
24.01.2019 15:54 -2,9 C -3,3 C -3,9 C 83 % 1009,8 hPa 0,0 l/m 0 min 0 min 30 W/m 0,0 km/h (0 Bft) 97,83 %
24.01.2019 15:56 -2,9 C -3,3 C -3,9 C 83 % 1009,8 hPa 0,0 l/m 0 min 0 min 28 W/m 3,2 km/h (1 Bft) 97,87 %
24.01.2019 15:58 -2,9 C -3,3 C -3,9 C 83 % 1009,8 hPa 0,0 l/m 0 min 0 min 28 W/m 3,2 km/h (1 Bft) 97,87 %
24.01.2019 16:00 -2,9 C -3,3 C -3,9 C 83 % 1009,8 hPa 0,0 l/m 0 min 0 min 28 W/m 3,2 km/h (1 Bft) 97,87 %
24.01.2019 16:02 -2,9 C -3,3 C -3,9 C 83 % 1009,9 hPa 0,0 l/m 0 min 0 min 28 W/m 6,4 km/h (2 Bft) 97,92 %
24.01.2019 16:04 -2,9 C -3,3 C -3,9 C 83 % 1009,9 hPa 0,0 l/m 0 min 0 min 26 W/m 3,2 km/h (1 Bft) 100,00 %
24.01.2019 16:06 -2,9 C -3,3 C -3,9 C 83 % 1009,9 hPa 0,0 l/m 0 min 0 min 26 W/m 6,4 km/h (2 Bft) 97,83 %
24.01.2019 16:08 -2,9 C -3,3 C -3,9 C 83 % 1009,9 hPa 0,0 l/m 0 min 0 min 25 W/m 6,4 km/h (2 Bft) 100,00 %
24.01.2019 16:10 -3,0 C -3,3 C -3,9 C 83 % 1010,0 hPa 0,0 l/m 0 min 0 min 24 W/m 6,4 km/h (2 Bft) 100,00 %
24.01.2019 16:12 -3,0 C -3,3 C -3,9 C 83 % 1010,0 hPa 0,0 l/m 0 min 0 min 23 W/m 6,4 km/h (2 Bft) 100,00 %
24.01.2019 16:14 -3,0 C -3,3 C -3,9 C 83 % 1010,1 hPa 0,0 l/m 0 min 0 min 21 W/m 6,4 km/h (2 Bft) 100,00 %
24.01.2019 16:16 -3,0 C -3,3 C -3,9 C 83 % 1010,1 hPa 0,0 l/m 0 min 0 min 21 W/m 6,4 km/h (2 Bft) 100,00 %
24.01.2019 16:18 -3,0 C -3,3 C -3,9 C 83 % 1010,1 hPa 0,0 l/m 0 min 0 min 21 W/m 6,4 km/h (2 Bft) 100,00 %
24.01.2019 16:20 -3,1 C -3,3 C -3,9 C 83 % 1010,1 hPa 0,0 l/m 0 min 0 min 19 W/m 3,2 km/h (1 Bft) 100,00 %
24.01.2019 16:22 -3,1 C -3,3 C -3,9 C 83 % 1010,2 hPa 0,0 l/m 0 min 0 min 18 W/m 6,4 km/h (2 Bft) 97,87 %
24.01.2019 16:24 -3,1 C -3,3 C -3,9 C 83 % 1010,1 hPa 0,0 l/m 0 min 0 min 18 W/m 3,2 km/h (1 Bft) 95,74 %
24.01.2019 16:26 -3,1 C -3,3 C -3,9 C 83 % 1010,1 hPa 0,0 l/m 0 min 0 min 16 W/m 3,2 km/h (1 Bft) 100,00 %
24.01.2019 16:28 -3,1 C -3,9 C -3,9 C 83 % 1010,2 hPa 0,0 l/m 0 min 0 min 16 W/m 3,2 km/h (1 Bft) 100,00 %
24.01.2019 16:30 -3,1 C -3,3 C -3,9 C 83 % 1010,2 hPa 0,0 l/m 0 min 0 min 14 W/m 3,2 km/h (1 Bft) 100,00 %
24.01.2019 16:32 -3,1 C -3,3 C -3,9 C 83 % 1010,2 hPa 0,0 l/m 0 min 0 min 14 W/m 3,2 km/h (1 Bft) 97,92 %
24.01.2019 16:34 -3,1 C -3,3 C -3,9 C 83 % 1010,1 hPa 0,0 l/m 0 min 0 min 13 W/m 3,2 km/h (1 Bft) 100,00 %
24.01.2019 16:36 -3,1 C -3,3 C -3,9 C 83 % 1010,2 hPa 0,0 l/m 0 min 0 min 12 W/m 6,4 km/h (2 Bft) 97,87 %
24.01.2019 16:38 -3,1 C -3,3 C -3,9 C 83 % 1010,2 hPa 0,0 l/m 0 min 0 min 12 W/m 6,4 km/h (2 Bft) 97,83 %
24.01.2019 16:40 -3,1 C -3,9 C -3,9 C 83 % 1010,2 hPa 0,0 l/m 0 min 0 min 11 W/m 3,2 km/h (1 Bft) 100,00 %
24.01.2019 16:42 -3,1 C -3,9 C -3,9 C 83 % 1010,2 hPa 0,0 l/m 0 min 0 min 10 W/m 3,2 km/h (1 Bft) 100,00 %
24.01.2019 16:44 -3,1 C -3,9 C -3,9 C 84 % 1010,3 hPa 0,0 l/m 0 min 0 min 9 W/m 0,0 km/h (0 Bft) 100,00 %
24.01.2019 16:46 -3,1 C -3,9 C -3,9 C 84 % 1010,3 hPa 0,0 l/m 0 min 0 min 9 W/m 6,4 km/h (2 Bft) 100,00 %
24.01.2019 16:48 -3,2 C -3,9 C -3,9 C 84 % 1010,3 hPa 0,0 l/m 0 min 0 min 9 W/m 6,4 km/h (2 Bft) 100,00 %
24.01.2019 16:50 -3,2 C -3,9 C -3,9 C 84 % 1010,3 hPa 0,0 l/m 0 min 0 min 9 W/m 0,0 km/h (0 Bft) 100,00 %
24.01.2019 16:52 -3,2 C -3,9 C -3,9 C 84 % 1010,3 hPa 0,0 l/m 0 min 0 min 7 W/m 0,0 km/h (0 Bft) 97,87 %
24.01.2019 16:54 -3,2 C -3,9 C -3,9 C 84 % 1010,4 hPa 0,0 l/m 0 min 0 min 6 W/m 3,2 km/h (1 Bft) 97,87 %
24.01.2019 16:56 -3,2 C -3,9 C -3,9 C 84 % 1010,4 hPa 0,0 l/m 0 min 0 min 5 W/m 3,2 km/h (1 Bft) 100,00 %
24.01.2019 16:58 -3,2 C -3,9 C -3,9 C 84 % 1010,4 hPa 0,0 l/m 0 min 0 min 5 W/m 3,2 km/h (1 Bft) 97,87 %
24.01.2019 17:00 -3,2 C -3,9 C -4,4 C 84 % 1010,4 hPa 0,0 l/m 0 min 0 min 5 W/m 3,2 km/h (1 Bft) 100,00 %
24.01.2019 17:02 -3,2 C -3,9 C -4,4 C 84 % 1010,4 hPa 0,0 l/m 0 min 0 min 3 W/m 3,2 km/h (1 Bft) 97,83 %
24.01.2019 17:04 -3,2 C -3,9 C -4,4 C 84 % 1010,4 hPa 0,0 l/m 0 min 0 min 0 W/m 3,2 km/h (1 Bft) 100,00 %
24.01.2019 17:06 -3,2 C -3,9 C -4,4 C 84 % 1010,4 hPa 0,0 l/m 0 min 0 min 0 W/m 3,2 km/h (1 Bft) 97,87 %
24.01.2019 17:08 -3,2 C -3,9 C -4,4 C 84 % 1010,3 hPa 0,0 l/m 0 min 0 min 0 W/m 0,0 km/h (0 Bft) 100,00 %
24.01.2019 17:10 -3,2 C -3,9 C -4,4 C 84 % 1010,3 hPa 0,0 l/m 0 min 0 min 0 W/m 0,0 km/h (0 Bft) 100,00 %
24.01.2019 17:12 -3,2 C -3,9 C -4,4 C 84 % 1010,4 hPa 0,0 l/m 0 min 0 min 0 W/m 0,0 km/h (0 Bft) 97,87 %
24.01.2019 17:14 -3,2 C -3,9 C -4,4 C 84 % 1010,4 hPa 0,0 l/m 0 min 0 min 0 W/m 0,0 km/h (0 Bft) 100,00 %
24.01.2019 17:16 -3,2 C -3,9 C -4,4 C 84 % 1010,4 hPa 0,0 l/m 0 min 0 min 0 W/m 0,0 km/h (0 Bft) 100,00 %
24.01.2019 17:18 -3,2 C -3,9 C -4,4 C 84 % 1010,5 hPa 0,0 l/m 0 min 0 min 0 W/m 0,0 km/h (0 Bft) 100,00 %
24.01.2019 17:20 -3,2 C -3,9 C -4,4 C 84 % 1010,6 hPa 0,0 l/m 0 min 0 min 0 W/m 0,0 km/h (0 Bft) 97,87 %
24.01.2019 17:22 -3,2 C -3,9 C -4,4 C 84 % 1010,7 hPa 0,0 l/m 0 min 0 min 0 W/m 0,0 km/h (0 Bft) 100,00 %
24.01.2019 17:24 -3,2 C -3,9 C -4,4 C 84 % 1010,7 hPa 0,0 l/m 0 min 0 min 0 W/m 3,2 km/h (1 Bft) 97,87 %
24.01.2019 17:26 -3,2 C -3,9 C -4,4 C 85 % 1010,6 hPa 0,0 l/m 0 min 0 min 0 W/m 3,2 km/h (1 Bft) 95,74 %
24.01.2019 17:28 -3,2 C -3,9 C -4,4 C 85 % 1010,6 hPa 0,0 l/m 0 min 0 min 0 W/m 0,0 km/h (0 Bft) 95,74 %
24.01.2019 17:30 -3,3 C -3,9 C -4,4 C 85 % 1010,6 hPa 0,0 l/m 0 min 0 min 0 W/m 3,2 km/h (1 Bft) 100,00 %
24.01.2019 17:32 -3,3 C -3,9 C -4,4 C 85 % 1010,7 hPa 0,0 l/m 0 min 0 min 0 W/m 3,2 km/h (1 Bft) 93,62 %
24.01.2019 17:34 -3,3 C -3,9 C -4,4 C 85 % 1010,6 hPa 0,0 l/m 0 min 0 min 0 W/m 3,2 km/h (1 Bft) 97,87 %
24.01.2019 17:36 -3,3 C -3,9 C -4,4 C 85 % 1010,7 hPa 0,0 l/m 0 min 0 min 0 W/m 3,2 km/h (1 Bft) 96,61 %
24.01.2019 17:38 -3,3 C -3,9 C -4,4 C 85 % 1010,7 hPa 0,0 l/m 0 min 0 min 0 W/m 0,0 km/h (0 Bft) 97,14 %
24.01.2019 17:40 -3,3 C -3,9 C -4,4 C 85 % 1010,6 hPa 0,0 l/m 0 min 0 min 0 W/m 6,4 km/h (2 Bft) 95,74 %
24.01.2019 17:42 -3,3 C -3,9 C -4,4 C 85 % 1010,6 hPa 0,0 l/m 0 min 0 min 0 W/m 6,4 km/h (2 Bft) 97,83 %
24.01.2019 17:44 -3,3 C -3,9 C -4,4 C 85 % 1010,6 hPa 0,0 l/m 0 min 0 min 0 W/m 6,4 km/h (2 Bft) 93,62 %
24.01.2019 17:46 -3,3 C -3,9 C -4,4 C 85 % 1010,6 hPa 0,0 l/m 0 min 0 min 0 W/m 6,4 km/h (2 Bft) 95,74 %
24.01.2019 17:48 -3,3 C -3,9 C -4,4 C 85 % 1010,7 hPa 0,0 l/m 0 min 0 min 0 W/m 3,2 km/h (1 Bft) 97,87 %
24.01.2019 17:50 -3,3 C -3,9 C -4,4 C 85 % 1010,6 hPa 0,0 l/m 0 min 0 min 0 W/m 3,2 km/h (1 Bft) 93,62 %
24.01.2019 17:52 -3,3 C -3,9 C -4,4 C 85 % 1010,7 hPa 0,0 l/m 0 min 0 min 0 W/m 3,2 km/h (1 Bft) 95,74 %
24.01.2019 17:54 -3,3 C -3,9 C -4,4 C 85 % 1010,6 hPa 0,0 l/m 0 min 0 min 0 W/m 3,2 km/h (1 Bft) 93,48 %
24.01.2019 17:56 -3,3 C -3,9 C -4,4 C 85 % 1010,6 hPa 0,0 l/m 0 min 0 min 0 W/m 6,4 km/h (2 Bft) 91,49 %
24.01.2019 17:58 -3,3 C -3,9 C -4,4 C 85 % 1010,5 hPa 0,0 l/m 0 min 0 min 0 W/m 6,4 km/h (2 Bft) 93,62 %
24.01.2019 18:00 -3,3 C -3,9 C -4,4 C 85 % 1010,6 hPa 0,0 l/m 0 min 0 min 0 W/m 3,2 km/h (1 Bft) 91,49 %
24.01.2019 18:02 -3,3 C -3,9 C -4,4 C 85 % 1010,7 hPa 0,0 l/m 0 min 0 min 0 W/m 3,2 km/h (1 Bft) 93,62 %
24.01.2019 18:04 -3,3 C -3,9 C -4,4 C 85 % 1010,7 hPa 0,0 l/m 0 min 0 min 0 W/m 3,2 km/h (1 Bft) 91,49 %
24.01.2019 18:08 -3,3 C -3,9 C -4,4 C 85 % 1010,7 hPa 0,0 l/m 0 min 0 min 0 W/m 3,2 km/h (1 Bft) 93,55 %
24.01.2019 18:10 -3,3 C -3,9 C -4,4 C 85 % 1010,8 hPa 0,0 l/m 0 min 0 min 0 W/m 3,2 km/h (1 Bft) 93,62 %
24.01.2019 18:12 -3,3 C -3,9 C -4,4 C 85 % 1010,8 hPa 0,0 l/m 0 min 0 min 0 W/m 6,4 km/h (2 Bft) 93,62 %
24.01.2019 18:14 -3,3 C -3,9 C -4,4 C 86 % 1010,8 hPa 0,0 l/m 0 min 0 min 0 W/m 3,2 km/h (1 Bft) 91,49 %
24.01.2019 18:16 -3,3 C -3,9 C -4,4 C 86 % 1010,8 hPa 0,0 l/m 0 min 0 min 0 W/m 3,2 km/h (1 Bft) 93,48 %
24.01.2019 18:18 -3,3 C -3,9 C -4,4 C 86 % 1010,9 hPa 0,0 l/m 0 min 0 min 0 W/m 3,2 km/h (1 Bft) 93,62 %
24.01.2019 18:20 -3,3 C -3,9 C -4,4 C 86 % 1011,0 hPa 0,0 l/m 0 min 0 min 0 W/m 3,2 km/h (1 Bft) 93,62 %
24.01.2019 18:22 -3,3 C -3,9 C -4,4 C 86 % 1010,9 hPa 0,0 l/m 0 min 0 min 0 W/m 0,0 km/h (0 Bft) 93,62 %
24.01.2019 18:24 -3,3 C -3,9 C -4,4 C 86 % 1011,0 hPa 0,0 l/m 0 min 0 min 0 W/m 0,0 km/h (0 Bft) 95,74 %
24.01.2019 18:26 -3,3 C -3,9 C -4,4 C 86 % 1011,0 hPa 0,0 l/m 0 min 0 min 0 W/m 3,2 km/h (1 Bft) 97,87 %
24.01.2019 18:28 -3,3 C -3,9 C -4,4 C 86 % 1011,0 hPa 0,0 l/m 0 min 0 min 0 W/m 3,2 km/h (1 Bft) 95,65 %
24.01.2019 18:30 -3,4 C -3,9 C -4,4 C 85 % 1011,0 hPa 0,0 l/m 0 min 0 min 0 W/m 3,2 km/h (1 Bft) 95,74 %
24.01.2019 18:32 -3,4 C -3,9 C -4,4 C 85 % 1011,0 hPa 0,0 l/m 0 min 0 min 0 W/m 6,4 km/h (2 Bft) 93,62 %
24.01.2019 18:34 -3,4 C -3,9 C -4,4 C 85 % 1011,0 hPa 0,0 l/m 0 min 0 min 0 W/m 6,4 km/h (2 Bft) 97,87 %
24.01.2019 18:36 -3,4 C -3,9 C -4,4 C 85 % 1011,0 hPa 0,0 l/m 0 min 0 min 0 W/m 6,4 km/h (2 Bft) 97,87 %
24.01.2019 18:38 -3,4 C -3,9 C -4,4 C 85 % 1011,0 hPa 0,0 l/m 0 min 0 min 0 W/m 6,4 km/h (2 Bft) 97,87 %
24.01.2019 18:40 -3,4 C -3,9 C -4,4 C 85 % 1010,8 hPa 0,0 l/m 0 min 0 min 0 W/m 6,4 km/h (2 Bft) 95,65 %
24.01.2019 18:42 -3,4 C -3,9 C -4,4 C 85 % 1010,9 hPa 0,0 l/m 0 min 0 min 0 W/m 3,2 km/h (1 Bft) 95,74 %
24.01.2019 18:44 -3,4 C -3,9 C -4,4 C 85 % 1011,0 hPa 0,0 l/m 0 min 0 min 0 W/m 0,0 km/h (0 Bft) 97,87 %
24.01.2019 18:46 -3,4 C -3,9 C -4,4 C 85 % 1011,0 hPa 0,0 l/m 0 min 0 min 0 W/m 0,0 km/h (0 Bft) 97,87 %
24.01.2019 18:48 -3,4 C -3,9 C -4,4 C 85 % 1011,1 hPa 0,0 l/m 0 min 0 min 0 W/m 3,2 km/h (1 Bft) 97,87 %
24.01.2019 18:50 -3,4 C -3,9 C -4,4 C 85 % 1011,1 hPa 0,0 l/m 0 min 0 min 0 W/m 0,0 km/h (0 Bft) 95,74 %
24.01.2019 18:52 -3,4 C -3,9 C -4,4 C 85 % 1011,2 hPa 0,0 l/m 0 min 0 min 0 W/m 3,2 km/h (1 Bft) 97,83 %
24.01.2019 18:54 -3,4 C -3,9 C -4,4 C 86 % 1011,2 hPa 0,0 l/m 0 min 0 min 0 W/m 3,2 km/h (1 Bft) 97,87 %
24.01.2019 18:56 -3,4 C -3,9 C -4,4 C 86 % 1011,1 hPa 0,0 l/m 0 min 0 min 0 W/m 3,2 km/h (1 Bft) 97,87 %
24.01.2019 18:58 -3,4 C -3,9 C -4,4 C 86 % 1011,1 hPa 0,0 l/m 0 min 0 min 0 W/m 3,2 km/h (1 Bft) 97,87 %
24.01.2019 19:00 -3,4 C -3,9 C -4,4 C 86 % 1011,1 hPa 0,0 l/m 0 min 0 min 0 W/m 3,2 km/h (1 Bft) 95,74 %
24.01.2019 19:02 -3,4 C -3,9 C -4,4 C 86 % 1011,1 hPa 0,0 l/m 0 min 0 min 0 W/m 3,2 km/h (1 Bft) 97,87 %
24.01.2019 19:04 -3,4 C -3,9 C -4,4 C 86 % 1011,2 hPa 0,0 l/m 0 min 0 min 0 W/m 3,2 km/h (1 Bft) 97,83 %
24.01.2019 19:06 -3,4 C -3,9 C -4,4 C 86 % 1011,2 hPa 0,0 l/m 0 min 0 min 0 W/m 3,2 km/h (1 Bft) 97,87 %
24.01.2019 19:08 -3,4 C -3,9 C -4,4 C 86 % 1011,3 hPa 0,0 l/m 0 min 0 min 0 W/m 3,2 km/h (1 Bft) 100,00 %
24.01.2019 19:10 -3,4 C -3,9 C -4,4 C 86 % 1011,3 hPa 0,0 l/m 0 min 0 min 0 W/m 3,2 km/h (1 Bft) 100,00 %
24.01.2019 19:12 -3,4 C -3,9 C -4,4 C 86 % 1011,3 hPa 0,0 l/m 0 min 0 min 0 W/m 0,0 km/h (0 Bft) 97,87 %
24.01.2019 19:14 -3,4 C -3,9 C -4,4 C 86 % 1011,3 hPa 0,0 l/m 0 min 0 min 0 W/m 0,0 km/h (0 Bft) 100,00 %
24.01.2019 19:16 -3,4 C -3,9 C -4,4 C 86 % 1011,4 hPa 0,0 l/m 0 min 0 min 0 W/m 0,0 km/h (0 Bft) 95,65 %
24.01.2019 19:18 -3,4 C -3,9 C -4,4 C 86 % 1011,4 hPa 0,0 l/m 0 min 0 min 0 W/m 0,0 km/h (0 Bft) 100,00 %
24.01.2019 19:20 -3,4 C -3,9 C -4,4 C 86 % 1011,4 hPa 0,0 l/m 0 min 0 min 0 W/m 3,2 km/h (1 Bft) 100,00 %
24.01.2019 19:22 -3,4 C -3,9 C -4,4 C 86 % 1011,5 hPa 0,0 l/m 0 min 0 min 0 W/m 3,2 km/h (1 Bft) 100,00 %
24.01.2019 19:24 -3,4 C -3,9 C -4,4 C 86 % 1011,5 hPa 0,0 l/m 0 min 0 min 0 W/m 3,2 km/h (1 Bft) 100,00 %
24.01.2019 19:26 -3,4 C -3,9 C -4,4 C 86 % 1011,5 hPa 0,0 l/m 0 min 0 min 0 W/m 3,2 km/h (1 Bft) 97,83 %
24.01.2019 19:28 -3,4 C -3,9 C -4,4 C 86 % 1011,4 hPa 0,0 l/m 0 min 0 min 0 W/m 6,4 km/h (2 Bft) 100,00 %
24.01.2019 19:30 -3,4 C -3,9 C -4,4 C 86 % 1011,6 hPa 0,0 l/m 0 min 0 min 0 W/m 3,2 km/h (1 Bft) 97,87 %
24.01.2019 19:32 -3,4 C -3,9 C -4,4 C 86 % 1011,6 hPa 0,0 l/m 0 min 0 min 0 W/m 3,2 km/h (1 Bft) 100,00 %
24.01.2019 19:34 -3,4 C -3,9 C -4,4 C 86 % 1011,6 hPa 0,0 l/m 0 min 0 min 0 W/m 3,2 km/h (1 Bft) 97,87 %
24.01.2019 19:36 -3,4 C -3,9 C -4,4 C 86 % 1011,6 hPa 0,0 l/m 0 min 0 min 0 W/m 6,4 km/h (2 Bft) 100,00 %
24.01.2019 19:38 -3,4 C -3,9 C -4,4 C 86 % 1011,6 hPa 0,0 l/m 0 min 0 min 0 W/m 3,2 km/h (1 Bft) 100,00 %
24.01.2019 19:40 -3,4 C -3,9 C -4,4 C 86 % 1011,6 hPa 0,0 l/m 0 min 0 min 0 W/m 3,2 km/h (1 Bft) 100,00 %
24.01.2019 19:42 -3,4 C -3,9 C -4,4 C 86 % 1011,6 hPa 0,0 l/m 0 min 0 min 0 W/m 3,2 km/h (1 Bft) 93,62 %
24.01.2019 19:44 -3,4 C -3,9 C -4,4 C 86 % 1011,6 hPa 0,0 l/m 0 min 0 min 0 W/m 3,2 km/h (1 Bft) 100,00 %
24.01.2019 19:46 -3,4 C -3,9 C -4,4 C 86 % 1011,7 hPa 0,0 l/m 0 min 0 min 0 W/m 0,0 km/h (0 Bft) 97,83 %
24.01.2019 19:48 -3,4 C -3,9 C -4,4 C 86 % 1011,7 hPa 0,0 l/m 0 min 0 min 0 W/m 0,0 km/h (0 Bft) 97,87 %
24.01.2019 19:50 -3,4 C -3,9 C -4,4 C 86 % 1011,8 hPa 0,0 l/m 0 min 0 min 0 W/m 6,4 km/h (2 Bft) 97,87 %
24.01.2019 19:52 -3,4 C -3,9 C -4,4 C 86 % 1011,7 hPa 0,0 l/m 0 min 0 min 0 W/m 6,4 km/h (2 Bft) 97,87 %
24.01.2019 19:54 -3,4 C -3,9 C -4,4 C 86 % 1011,8 hPa 0,0 l/m 0 min 0 min 0 W/m 6,4 km/h (2 Bft) 100,00 %
24.01.2019 19:56 -3,4 C -3,9 C -4,4 C 86 % 1011,7 hPa 0,0 l/m 0 min 0 min 0 W/m 9,7 km/h (2 Bft) 100,00 %
24.01.2019 19:58 -3,4 C -3,9 C -4,4 C 86 % 1011,7 hPa 0,0 l/m 0 min 0 min 0 W/m 3,2 km/h (1 Bft) 97,83 %
24.01.2019 20:00 -3,4 C -3,9 C -4,4 C 86 % 1011,8 hPa 0,0 l/m 0 min 0 min 0 W/m 6,4 km/h (2 Bft) 97,87 %
24.01.2019 20:02 -3,4 C -3,9 C -4,4 C 86 % 1011,8 hPa 0,0 l/m 0 min 0 min 0 W/m 6,4 km/h (2 Bft) 97,92 %
24.01.2019 20:04 -3,4 C -3,9 C -4,4 C 86 % 1011,8 hPa 0,0 l/m 0 min 0 min 0 W/m 6,4 km/h (2 Bft) 91,49 %
24.01.2019 20:06 -3,4 C -3,9 C -4,4 C 86 % 1011,8 hPa 0,0 l/m 0 min 0 min 0 W/m 6,4 km/h (2 Bft) 97,87 %
24.01.2019 20:08 -3,4 C -3,9 C -4,4 C 86 % 1011,9 hPa 0,0 l/m 0 min 0 min 0 W/m 6,4 km/h (2 Bft) 95,65 %
24.01.2019 20:10 -3,3 C -3,9 C -4,4 C 86 % 1011,8 hPa 0,0 l/m 0 min 0 min 0 W/m 3,2 km/h (1 Bft) 97,87 %
24.01.2019 20:12 -3,3 C -3,9 C -4,4 C 86 % 1011,8 hPa 0,0 l/m 0 min 0 min 0 W/m 3,2 km/h (1 Bft) 95,74 %
24.01.2019 20:14 -3,3 C -3,9 C -4,4 C 86 % 1011,8 hPa 0,0 l/m 0 min 0 min 0 W/m 3,2 km/h (1 Bft) 97,87 %
24.01.2019 20:16 -3,3 C -3,9 C -4,4 C 86 % 1011,8 hPa 0,0 l/m 0 min 0 min 0 W/m 3,2 km/h (1 Bft) 97,87 %
24.01.2019 20:18 -3,3 C -3,9 C -4,4 C 86 % 1011,8 hPa 0,0 l/m 0 min 0 min 0 W/m 6,4 km/h (2 Bft) 97,87 %
24.01.2019 20:20 -3,3 C -3,9 C -3,9 C 86 % 1011,8 hPa 0,0 l/m 0 min 0 min 0 W/m 6,4 km/h (2 Bft) 97,83 %
24.01.2019 20:22 -3,3 C -3,9 C -4,4 C 86 % 1011,9 hPa 0,0 l/m 0 min 0 min 0 W/m 3,2 km/h (1 Bft) 97,87 %
24.01.2019 20:24 -3,3 C -3,9 C -3,9 C 86 % 1011,9 hPa 0,0 l/m 0 min 0 min 0 W/m 6,4 km/h (2 Bft) 97,87 %
24.01.2019 20:26 -3,3 C -3,9 C -3,9 C 86 % 1011,9 hPa 0,0 l/m 0 min 0 min 0 W/m 3,2 km/h (1 Bft) 97,87 %
24.01.2019 20:28 -3,3 C -3,9 C -3,9 C 86 % 1011,8 hPa 0,0 l/m 0 min 0 min 0 W/m 3,2 km/h (1 Bft) 97,87 %
24.01.2019 20:30 -3,3 C -3,9 C -3,9 C 86 % 1011,9 hPa 0,0 l/m 0 min 0 min 0 W/m 3,2 km/h (1 Bft) 97,87 %
24.01.2019 20:32 -3,3 C -3,9 C -3,9 C 86 % 1012,0 hPa 0,0 l/m 0 min 0 min 0 W/m 3,2 km/h (1 Bft) 97,87 %
24.01.2019 20:34 -3,3 C -3,9 C -3,9 C 86 % 1012,0 hPa 0,0 l/m 0 min 0 min 0 W/m 3,2 km/h (1 Bft) 95,74 %
24.01.2019 20:36 -3,3 C -3,9 C -3,9 C 86 % 1012,0 hPa 0,0 l/m 0 min 0 min 0 W/m 3,2 km/h (1 Bft) 97,87 %
24.01.2019 20:38 -3,3 C -3,9 C -3,9 C 86 % 1012,0 hPa 0,0 l/m 0 min 0 min 0 W/m 3,2 km/h (1 Bft) 97,87 %
24.01.2019 20:40 -3,3 C -3,9 C -3,9 C 86 % 1012,0 hPa 0,0 l/m 0 min 0 min 0 W/m 6,4 km/h (2 Bft) 97,87 %
24.01.2019 20:42 -3,3 C -3,9 C -3,9 C 86 % 1012,0 hPa 0,0 l/m 0 min 0 min 0 W/m 3,2 km/h (1 Bft) 97,83 %
24.01.2019 20:44 -3,3 C -3,9 C -3,9 C 86 % 1011,9 hPa 0,0 l/m 0 min 0 min 0 W/m 0,0 km/h (0 Bft) 97,87 %
24.01.2019 20:46 -3,3 C -3,9 C -3,9 C 86 % 1011,9 hPa 0,0 l/m 0 min 0 min 0 W/m 6,4 km/h (2 Bft) 95,74 %
24.01.2019 20:48 -3,3 C -3,9 C -3,9 C 86 % 1011,9 hPa 0,0 l/m 0 min 0 min 0 W/m 6,4 km/h (2 Bft) 97,87 %
24.01.2019 20:50 -3,3 C -3,3 C -3,9 C 86 % 1011,9 hPa 0,0 l/m 0 min 0 min 0 W/m 6,4 km/h (2 Bft) 97,87 %
24.01.2019 20:52 -3,3 C -3,3 C -3,9 C 86 % 1011,9 hPa 0,0 l/m 0 min 0 min 0 W/m 6,4 km/h (2 Bft) 97,87 %
24.01.2019 20:54 -3,3 C -3,9 C -3,9 C 86 % 1011,9 hPa 0,0 l/m 0 min 0 min 0 W/m 3,2 km/h (1 Bft) 95,65 %
24.01.2019 20:56 -3,3 C -3,9 C -3,9 C 86 % 1012,0 hPa 0,0 l/m 0 min 0 min 0 W/m 3,2 km/h (1 Bft) 97,87 %
24.01.2019 20:58 -3,3 C -3,9 C -3,9 C 86 % 1012,0 hPa 0,0 l/m 0 min 0 min 0 W/m 3,2 km/h (1 Bft) 97,87 %
24.01.2019 21:00 -3,3 C -3,9 C -3,9 C 86 % 1012,0 hPa 0,0 l/m 0 min 0 min 0 W/m 9,7 km/h (2 Bft) 97,87 %
24.01.2019 21:02 -3,3 C -3,9 C -3,9 C 86 % 1012,0 hPa 0,0 l/m 0 min 0 min 0 W/m 6,4 km/h (2 Bft) 97,22 %
24.01.2019 21:04 -3,3 C -3,9 C -3,9 C 86 % 1011,9 hPa 0,0 l/m 0 min 0 min 0 W/m 3,2 km/h (1 Bft) 97,87 %
24.01.2019 21:06 -3,3 C -3,9 C -3,9 C 86 % 1012,0 hPa 0,0 l/m 0 min 0 min 0 W/m 3,2 km/h (1 Bft) 96,55 %
24.01.2019 21:08 -3,3 C -3,9 C -3,9 C 86 % 1012,0 hPa 0,0 l/m 0 min 0 min 0 W/m 3,2 km/h (1 Bft) 97,22 %
24.01.2019 21:10 -3,3 C -3,3 C -3,9 C 86 % 1011,9 hPa 0,0 l/m 0 min 0 min 0 W/m 6,4 km/h (2 Bft) 95,74 %
24.01.2019 21:12 -3,3 C -3,3 C -3,9 C 86 % 1012,0 hPa 0,0 l/m 0 min 0 min 0 W/m 9,7 km/h (2 Bft) 97,83 %
24.01.2019 21:14 -3,3 C -3,3 C -3,9 C 86 % 1012,0 hPa 0,0 l/m 0 min 0 min 0 W/m 6,4 km/h (2 Bft) 97,87 %
24.01.2019 21:16 -3,3 C -3,9 C -3,9 C 86 % 1012,1 hPa 0,0 l/m 0 min 0 min 0 W/m 3,2 km/h (1 Bft) 97,87 %
24.01.2019 21:18 -3,3 C -3,9 C -3,9 C 86 % 1012,0 hPa 0,0 l/m 0 min 0 min 0 W/m 3,2 km/h (1 Bft) 97,87 %
24.01.2019 21:20 -3,3 C -3,9 C -3,9 C 86 % 1012,0 hPa 0,0 l/m 0 min 0 min 0 W/m 3,2 km/h (1 Bft) 95,74 %
24.01.2019 21:22 -3,3 C -3,3 C -3,9 C 86 % 1012,0 hPa 0,0 l/m 0 min 0 min 0 W/m 6,4 km/h (2 Bft) 97,83 %
24.01.2019 21:24 -3,2 C -3,3 C -3,9 C 86 % 1012,0 hPa 0,0 l/m 0 min 0 min 0 W/m 6,4 km/h (2 Bft) 97,87 %
24.01.2019 21:26 -3,2 C -3,3 C -3,9 C 86 % 1012,0 hPa 0,0 l/m 0 min 0 min 0 W/m 6,4 km/h (2 Bft) 100,00 %
24.01.2019 21:28 -3,2 C -3,3 C -3,9 C 86 % 1012,0 hPa 0,0 l/m 0 min 0 min 0 W/m 3,2 km/h (1 Bft) 100,00 %
24.01.2019 21:30 -3,2 C -3,3 C -3,9 C 86 % 1012,2 hPa 0,0 l/m 0 min 0 min 0 W/m 6,4 km/h (2 Bft) 100,00 %
24.01.2019 21:32 -3,3 C -3,9 C -3,9 C 86 % 1012,1 hPa 0,0 l/m 0 min 0 min 0 W/m 3,2 km/h (1 Bft) 97,87 %
24.01.2019 21:34 -3,2 C -3,9 C -3,9 C 86 % 1012,1 hPa 0,0 l/m 0 min 0 min 0 W/m 6,4 km/h (2 Bft) 100,00 %
24.01.2019 21:36 -3,2 C -3,9 C -3,9 C 86 % 1012,1 hPa 0,0 l/m 0 min 0 min 0 W/m 3,2 km/h (1 Bft) 98,31 %
24.01.2019 21:38 -3,2 C -3,9 C -3,9 C 86 % 1012,1 hPa 0,0 l/m 0 min 0 min 0 W/m 3,2 km/h (1 Bft) 100,00 %
24.01.2019 21:40 -3,2 C -3,3 C -3,9 C 86 % 1012,1 hPa 0,0 l/m 0 min 0 min 0 W/m 6,4 km/h (2 Bft) 100,00 %
24.01.2019 21:42 -3,2 C -3,3 C -3,9 C 86 % 1012,0 hPa 0,0 l/m 0 min 0 min 0 W/m 6,4 km/h (2 Bft) 97,87 %
24.01.2019 21:44 -3,2 C -3,3 C -3,9 C 86 % 1012,0 hPa 0,0 l/m 0 min 0 min 0 W/m 3,2 km/h (1 Bft) 100,00 %
24.01.2019 21:46 -3,2 C -3,3 C -3,9 C 86 % 1012,1 hPa 0,0 l/m 0 min 0 min 0 W/m 3,2 km/h (1 Bft) 100,00 %
24.01.2019 21:48 -3,2 C -3,3 C -3,9 C 86 % 1012,2 hPa 0,0 l/m 0 min 0 min 0 W/m 6,4 km/h (2 Bft) 91,49 %
24.01.2019 21:50 -3,2 C -3,3 C -3,9 C 86 % 1012,2 hPa 0,0 l/m 0 min 0 min 0 W/m 6,4 km/h (2 Bft) 100,00 %
24.01.2019 21:52 -3,2 C -3,3 C -3,9 C 86 % 1012,1 hPa 0,0 l/m 0 min 0 min 0 W/m 6,4 km/h (2 Bft) 87,23 %
24.01.2019 21:54 -3,2 C -3,3 C -3,9 C 87 % 1012,1 hPa 0,0 l/m 0 min 0 min 0 W/m 3,2 km/h (1 Bft) 85,11 %
24.01.2019 21:56 -3,2 C -3,3 C -3,9 C 87 % 1012,1 hPa 0,0 l/m 0 min 0 min 0 W/m 6,4 km/h (2 Bft) 97,87 %
24.01.2019 21:58 -3,2 C -3,3 C -3,9 C 87 % 1012,1 hPa 0,0 l/m 0 min 0 min 0 W/m 6,4 km/h (2 Bft) 89,13 %
24.01.2019 22:00 -3,2 C -3,3 C -3,9 C 87 % 1012,1 hPa 0,0 l/m 0 min 0 min 0 W/m 6,4 km/h (2 Bft) 80,85 %
24.01.2019 22:02 -3,2 C -3,3 C -3,9 C 87 % 1012,2 hPa 0,0 l/m 0 min 0 min 0 W/m 6,4 km/h (2 Bft) 74,47 %
24.01.2019 22:04 -3,2 C -3,3 C -3,9 C 87 % 1012,2 hPa 0,0 l/m 0 min 0 min 0 W/m 6,4 km/h (2 Bft) 74,47 %
24.01.2019 22:06 -3,2 C -3,3 C -3,9 C 87 % 1012,2 hPa 0,0 l/m 0 min 0 min 0 W/m 6,4 km/h (2 Bft) 77,59 %
24.01.2019 22:08 -3,2 C -3,3 C -3,9 C 87 % 1012,2 hPa 0,0 l/m 0 min 0 min 0 W/m 9,7 km/h (2 Bft) 69,44 %
24.01.2019 22:10 -3,2 C -3,3 C -3,9 C 87 % 1012,1 hPa 0,0 l/m 0 min 0 min 0 W/m 6,4 km/h (2 Bft) 82,61 %
24.01.2019 22:12 -3,2 C -3,3 C -3,9 C 87 % 1012,1 hPa 0,0 l/m 0 min 0 min 0 W/m 9,7 km/h (2 Bft) 82,98 %
24.01.2019 22:14 -3,2 C -3,3 C -3,9 C 87 % 1012,1 hPa 0,0 l/m 0 min 0 min 0 W/m 6,4 km/h (2 Bft) 80,85 %
24.01.2019 22:16 -3,2 C -3,3 C -3,9 C 87 % 1012,2 hPa 0,0 l/m 0 min 0 min 0 W/m 3,2 km/h (1 Bft) 72,34 %
24.01.2019 22:18 -3,2 C -3,3 C -3,9 C 87 % 1012,2 hPa 0,0 l/m 0 min 0 min 0 W/m 6,4 km/h (2 Bft) 76,60 %
24.01.2019 22:20 -3,1 C -3,3 C -3,9 C 87 % 1012,2 hPa 0,0 l/m 0 min 0 min 0 W/m 6,4 km/h (2 Bft) 78,26 %
24.01.2019 22:22 -3,1 C -3,3 C -3,9 C 87 % 1012,2 hPa 0,0 l/m 0 min 0 min 0 W/m 6,4 km/h (2 Bft) 74,47 %
24.01.2019 22:24 -3,1 C -3,3 C -3,9 C 87 % 1012,2 hPa 0,0 l/m 0 min 0 min 0 W/m 6,4 km/h (2 Bft) 78,72 %
24.01.2019 22:26 -3,1 C -3,3 C -3,9 C 87 % 1012,2 hPa 0,0 l/m 0 min 0 min 0 W/m 9,7 km/h (2 Bft) 80,85 %
24.01.2019 22:28 -3,1 C -3,3 C -3,9 C 87 % 1012,1 hPa 0,0 l/m 0 min 0 min 0 W/m 6,4 km/h (2 Bft) 82,98 %
24.01.2019 22:30 -3,1 C -3,3 C -3,9 C 87 % 1012,2 hPa 0,0 l/m 0 min 0 min 0 W/m 12,9 km/h (3 Bft) 89,36 %
24.01.2019 22:32 -3,1 C -3,3 C -3,9 C 87 % 1012,2 hPa 0,0 l/m 0 min 0 min 0 W/m 9,7 km/h (2 Bft) 84,78 %
24.01.2019 22:34 -3,1 C -3,3 C -3,9 C 87 % 1012,3 hPa 0,0 l/m 0 min 0 min 0 W/m 6,4 km/h (2 Bft) 80,85 %
24.01.2019 22:36 -3,1 C -3,3 C -3,9 C 87 % 1012,3 hPa 0,0 l/m 0 min 0 min 0 W/m 6,4 km/h (2 Bft) 82,98 %
24.01.2019 22:38 -3,1 C -3,3 C -3,9 C 87 % 1012,3 hPa 0,0 l/m 0 min 0 min 0 W/m 6,4 km/h (2 Bft) 93,62 %
24.01.2019 22:40 -3,1 C -3,3 C -3,9 C 87 % 1012,2 hPa 0,0 l/m 0 min 0 min 0 W/m 9,7 km/h (2 Bft) 89,36 %
24.01.2019 22:42 -3,1 C -3,3 C -3,9 C 87 % 1012,2 hPa 0,0 l/m 0 min 0 min 0 W/m 6,4 km/h (2 Bft) 93,62 %
24.01.2019 22:44 -3,1 C -3,3 C -3,9 C 87 % 1012,2 hPa 0,0 l/m 0 min 0 min 0 W/m 6,4 km/h (2 Bft) 91,30 %
24.01.2019 22:46 -3,1 C -3,3 C -3,9 C 87 % 1012,3 hPa 0,0 l/m 0 min 0 min 0 W/m 3,2 km/h (1 Bft) 93,62 %
24.01.2019 22:48 -3,1 C -3,3 C -3,9 C 87 % 1012,3 hPa 0,0 l/m 0 min 0 min 0 W/m 3,2 km/h (1 Bft) 95,74 %
24.01.2019 22:50 -3,1 C -3,3 C -3,9 C 87 % 1012,3 hPa 0,0 l/m 0 min 0 min 0 W/m 6,4 km/h (2 Bft) 95,74 %
24.01.2019 22:52 -3,1 C -3,3 C -3,9 C 87 % 1012,2 hPa 0,0 l/m 0 min 0 min 0 W/m 6,4 km/h (2 Bft) 95,74 %
24.01.2019 22:54 -3,1 C -3,3 C -3,9 C 87 % 1012,2 hPa 0,0 l/m 0 min 0 min 0 W/m 6,4 km/h (2 Bft) 95,74 %
24.01.2019 22:56 -3,1 C -3,3 C -3,9 C 87 % 1012,2 hPa 0,0 l/m 0 min 0 min 0 W/m 6,4 km/h (2 Bft) 100,00 %
24.01.2019 22:58 -3,1 C -3,3 C -3,9 C 87 % 1012,2 hPa 0,0 l/m 0 min 0 min 0 W/m 3,2 km/h (1 Bft) 95,74 %
24.01.2019 23:00 -3,1 C -3,3 C -3,9 C 87 % 1012,2 hPa 0,0 l/m 0 min 0 min 0 W/m 6,4 km/h (2 Bft) 97,87 %
24.01.2019 23:02 -3,1 C -3,3 C -3,9 C 87 % 1012,2 hPa 0,0 l/m 0 min 0 min 0 W/m 6,4 km/h (2 Bft) 97,87 %
24.01.2019 23:04 -3,1 C -3,3 C -3,9 C 87 % 1012,1 hPa 0,0 l/m 0 min 0 min 0 W/m 6,4 km/h (2 Bft) 97,87 %
24.01.2019 23:06 -3,1 C -3,3 C -3,9 C 87 % 1012,2 hPa 0,0 l/m 0 min 0 min 0 W/m 6,4 km/h (2 Bft) 95,74 %
24.01.2019 23:08 -3,1 C -3,3 C -3,9 C 87 % 1012,2 hPa 0,0 l/m 0 min 0 min 0 W/m 6,4 km/h (2 Bft) 97,83 %
24.01.2019 23:10 -3,1 C -3,3 C -3,9 C 87 % 1012,2 hPa 0,0 l/m 0 min 0 min 0 W/m 3,2 km/h (1 Bft) 100,00 %
24.01.2019 23:12 -3,1 C -3,3 C -3,9 C 87 % 1012,2 hPa 0,0 l/m 0 min 0 min 0 W/m 6,4 km/h (2 Bft) 100,00 %
24.01.2019 23:14 -3,1 C -3,3 C -3,9 C 87 % 1012,3 hPa 0,0 l/m 0 min 0 min 0 W/m 6,4 km/h (2 Bft) 100,00 %
24.01.2019 23:16 -3,1 C -3,3 C -3,9 C 87 % 1012,3 hPa 0,0 l/m 0 min 0 min 0 W/m 3,2 km/h (1 Bft) 100,00 %
24.01.2019 23:18 -3,1 C -3,3 C -3,9 C 87 % 1012,4 hPa 0,0 l/m 0 min 0 min 0 W/m 3,2 km/h (1 Bft) 97,87 %
24.01.2019 23:20 -3,1 C -3,3 C -3,9 C 87 % 1012,3 hPa 0,0 l/m 0 min 0 min 0 W/m 3,2 km/h (1 Bft) 100,00 %
24.01.2019 23:22 -3,1 C -3,3 C -3,9 C 87 % 1012,4 hPa 0,0 l/m 0 min 0 min 0 W/m 3,2 km/h (1 Bft) 100,00 %
24.01.2019 23:24 -3,1 C -3,3 C -3,9 C 87 % 1012,4 hPa 0,0 l/m 0 min 0 min 0 W/m 3,2 km/h (1 Bft) 97,87 %
24.01.2019 23:26 -3,1 C -3,3 C -3,9 C 87 % 1012,5 hPa 0,0 l/m 0 min 0 min 0 W/m 6,4 km/h (2 Bft) 95,65 %
24.01.2019 23:28 -3,1 C -3,3 C -3,9 C 87 % 1012,4 hPa 0,0 l/m 0 min 0 min 0 W/m 9,7 km/h (2 Bft) 93,62 %
24.01.2019 23:30 -3,1 C -3,3 C -3,9 C 87 % 1012,4 hPa 0,0 l/m 0 min 0 min 0 W/m 6,4 km/h (2 Bft) 97,87 %
24.01.2019 23:32 -3,1 C -3,3 C -3,9 C 87 % 1012,5 hPa 0,0 l/m 0 min 0 min 0 W/m 6,4 km/h (2 Bft) 97,87 %
24.01.2019 23:34 -3,1 C -3,3 C -3,9 C 87 % 1012,5 hPa 0,0 l/m 0 min 0 min 0 W/m 6,4 km/h (2 Bft) 97,87 %
24.01.2019 23:36 -3,1 C -3,3 C -3,9 C 87 % 1012,4 hPa 0,0 l/m 0 min 0 min 0 W/m 3,2 km/h (1 Bft) 97,87 %
24.01.2019 23:38 -3,1 C -3,3 C -3,9 C 87 % 1012,4 hPa 0,0 l/m 0 min 0 min 0 W/m 6,4 km/h (2 Bft) 97,87 %
24.01.2019 23:40 -3,1 C -3,3 C -3,9 C 87 % 1012,3 hPa 0,0 l/m 0 min 0 min 0 W/m 6,4 km/h (2 Bft) 95,74 %
24.01.2019 23:42 -3,1 C -3,3 C -3,9 C 87 % 1012,4 hPa 0,0 l/m 0 min 0 min 0 W/m 9,7 km/h (2 Bft) 97,87 %
24.01.2019 23:44 -3,1 C -3,3 C -3,9 C 87 % 1012,6 hPa 0,0 l/m 0 min 0 min 0 W/m 6,4 km/h (2 Bft) 97,87 %
24.01.2019 23:46 -3,0 C -3,3 C -3,9 C 87 % 1012,5 hPa 0,0 l/m 0 min 0 min 0 W/m 6,4 km/h (2 Bft) 97,87 %
24.01.2019 23:48 -3,0 C -3,3 C -3,9 C 87 % 1012,5 hPa 0,0 l/m 0 min 0 min 0 W/m 3,2 km/h (1 Bft) 95,74 %
24.01.2019 23:50 -3,0 C -3,3 C -3,9 C 87 % 1012,5 hPa 0,0 l/m 0 min 0 min 0 W/m 6,4 km/h (2 Bft) 95,65 %
24.01.2019 23:52 -3,0 C -3,3 C -3,9 C 87 % 1012,7 hPa 0,0 l/m 0 min 0 min 0 W/m 3,2 km/h (1 Bft) 97,87 %
24.01.2019 23:54 -3,0 C -3,3 C -3,9 C 87 % 1012,7 hPa 0,0 l/m 0 min 0 min 0 W/m 6,4 km/h (2 Bft) 95,74 %
24.01.2019 23:56 -3,0 C -3,3 C -3,9 C 87 % 1012,7 hPa 0,0 l/m 0 min 0 min 0 W/m 6,4 km/h (2 Bft) 95,74 %
24.01.2019 23:58 -3,1 C -3,3 C -3,9 C 87 % 1012,7 hPa 0,0 l/m 0 min 0 min 0 W/m 6,4 km/h (2 Bft) 95,74 %
_ Min-Zeit 07:22 07:44 04:14 14:14 00:00 - - - - 06:54 22:08
Minimum _ -3,7 C -4,4 C -4,4 C 81 % 1003,9 hPa - - - - 0,0 km/h (0 Bft) 69,44 %
_ Max-Zeit 13:18 13:18 12:08 09:18 23:52 00:00 00:00 00:00 14:06 01:40 00:00
Maximum _ -2,4 C -1,7 C -2,8 C 88 % 1012,7 hPa 0,0 l/m 0 min 0 min 113 W/m 16,1 km/h
W (3 Bft)
100,00 %
Durchschnitt _ -3,2 C -3,4 C -3,9 C 86 % 1008,8 hPa #0,0 l/m #0 min. #0 min. 55 W/m 5,8 km/h (2 Bft) 96,87 %
© 2019 W. Hausmann